<?xml version="1.0" encoding="UTF-8" standalone="no" ?>
<gpx xmlns="http://www.topografix.com/GPX/1/1" xmlns:xsi="http://www.w3.org/2001/XMLSchema-instance" xsi:schemaLocation="http://www.topografix.com/GPX/1/1 http://www.topografix.com/GPX/1/1/gpx.xsd" version="1.1" creator="VisuGPX - https://www.visugpx.com">
  <metadata>
    <name>Le rocher de Roquebrune</name>
  </metadata>
  <trk>
    <name><![CDATA[21/01/2019 15:53:51  Le rocher de Roquebrune]]></name>
    <extensions>
      <line xmlns="http://www.topografix.com/GPX/gpx_style/0/2">
        <color>0000FF</color>
        <width>4</width>
      </line>
    </extensions>
    <trkseg>
      <trkpt lat="43.44625" lon="6.62053">
        <ele>152.39999389648</ele>
        <time>2019-01-24T10:20:07Z</time>
      </trkpt>
      <trkpt lat="43.44619" lon="6.62055">
        <ele>152.19999694824</ele>
        <time>2019-01-24T10:21:11Z</time>
      </trkpt>
      <trkpt lat="43.44609" lon="6.62052">
        <ele>152.39999389648</ele>
        <time>2019-01-24T10:21:26Z</time>
      </trkpt>
      <trkpt lat="43.44587" lon="6.6205">
        <ele>152.19999694824</ele>
        <time>2019-01-24T10:21:46Z</time>
      </trkpt>
      <trkpt lat="43.44571" lon="6.62046">
        <ele>152.60000610352</ele>
        <time>2019-01-24T10:22:00Z</time>
      </trkpt>
      <trkpt lat="43.44563" lon="6.62042">
        <ele>152.60000610352</ele>
        <time>2019-01-24T10:22:06Z</time>
      </trkpt>
      <trkpt lat="43.44543" lon="6.6204">
        <ele>152.19999694824</ele>
        <time>2019-01-24T10:22:23Z</time>
      </trkpt>
      <trkpt lat="43.44527" lon="6.62035">
        <ele>152.19999694824</ele>
        <time>2019-01-24T10:22:37Z</time>
      </trkpt>
      <trkpt lat="43.44504" lon="6.62024">
        <ele>151.80000305176</ele>
        <time>2019-01-24T10:22:55Z</time>
      </trkpt>
      <trkpt lat="43.44484" lon="6.62016">
        <ele>152</ele>
        <time>2019-01-24T10:23:11Z</time>
      </trkpt>
      <trkpt lat="43.4447" lon="6.62014">
        <ele>152</ele>
        <time>2019-01-24T10:23:23Z</time>
      </trkpt>
      <trkpt lat="43.44451" lon="6.62016">
        <ele>151.80000305176</ele>
        <time>2019-01-24T10:23:39Z</time>
      </trkpt>
      <trkpt lat="43.44435" lon="6.62021">
        <ele>152.19999694824</ele>
        <time>2019-01-24T10:23:53Z</time>
      </trkpt>
      <trkpt lat="43.44418" lon="6.62019">
        <ele>151.39999389648</ele>
        <time>2019-01-24T10:24:07Z</time>
      </trkpt>
      <trkpt lat="43.44417" lon="6.62017">
        <ele>151.80000305176</ele>
        <time>2019-01-24T10:24:37Z</time>
      </trkpt>
      <trkpt lat="43.44416" lon="6.6202">
        <ele>151.39999389648</ele>
        <time>2019-01-24T10:25:33Z</time>
      </trkpt>
      <trkpt lat="43.44417" lon="6.62017">
        <ele>150.60000610352</ele>
        <time>2019-01-24T10:27:08Z</time>
      </trkpt>
      <trkpt lat="43.44415" lon="6.62019">
        <ele>150.60000610352</ele>
        <time>2019-01-24T10:28:33Z</time>
      </trkpt>
      <trkpt lat="43.4441" lon="6.62021">
        <ele>150.60000610352</ele>
        <time>2019-01-24T10:28:38Z</time>
      </trkpt>
      <trkpt lat="43.44398" lon="6.61995">
        <ele>149</ele>
        <time>2019-01-24T10:28:55Z</time>
      </trkpt>
      <trkpt lat="43.44391" lon="6.61969">
        <ele>149.19999694824</ele>
        <time>2019-01-24T10:29:08Z</time>
      </trkpt>
      <trkpt lat="43.44379" lon="6.61947">
        <ele>149.60000610352</ele>
        <time>2019-01-24T10:29:25Z</time>
      </trkpt>
      <trkpt lat="43.44372" lon="6.61918">
        <ele>150.39999389648</ele>
        <time>2019-01-24T10:29:50Z</time>
      </trkpt>
      <trkpt lat="43.44372" lon="6.61906">
        <ele>150.60000610352</ele>
        <time>2019-01-24T10:30:00Z</time>
      </trkpt>
      <trkpt lat="43.44371" lon="6.61896">
        <ele>150.60000610352</ele>
        <time>2019-01-24T10:30:05Z</time>
      </trkpt>
      <trkpt lat="43.44371" lon="6.61867">
        <ele>151</ele>
        <time>2019-01-24T10:30:21Z</time>
      </trkpt>
      <trkpt lat="43.4437" lon="6.61845">
        <ele>151.60000610352</ele>
        <time>2019-01-24T10:30:37Z</time>
      </trkpt>
      <trkpt lat="43.44366" lon="6.61804">
        <ele>152.39999389648</ele>
        <time>2019-01-24T10:31:00Z</time>
      </trkpt>
      <trkpt lat="43.44363" lon="6.6178">
        <ele>152.19999694824</ele>
        <time>2019-01-24T10:31:13Z</time>
      </trkpt>
      <trkpt lat="43.44362" lon="6.61768">
        <ele>152.19999694824</ele>
        <time>2019-01-24T10:31:20Z</time>
      </trkpt>
      <trkpt lat="43.44363" lon="6.61748">
        <ele>152.19999694824</ele>
        <time>2019-01-24T10:31:34Z</time>
      </trkpt>
      <trkpt lat="43.44358" lon="6.61733">
        <ele>152.19999694824</ele>
        <time>2019-01-24T10:31:46Z</time>
      </trkpt>
      <trkpt lat="43.44357" lon="6.61717">
        <ele>152</ele>
        <time>2019-01-24T10:32:04Z</time>
      </trkpt>
      <trkpt lat="43.4435" lon="6.61696">
        <ele>151.80000305176</ele>
        <time>2019-01-24T10:32:21Z</time>
      </trkpt>
      <trkpt lat="43.4435" lon="6.61692">
        <ele>151.80000305176</ele>
        <time>2019-01-24T10:32:24Z</time>
      </trkpt>
      <trkpt lat="43.44354" lon="6.61678">
        <ele>153</ele>
        <time>2019-01-24T10:32:37Z</time>
      </trkpt>
      <trkpt lat="43.44352" lon="6.61664">
        <ele>155</ele>
        <time>2019-01-24T10:32:53Z</time>
      </trkpt>
      <trkpt lat="43.44351" lon="6.61651">
        <ele>157.19999694824</ele>
        <time>2019-01-24T10:33:09Z</time>
      </trkpt>
      <trkpt lat="43.44351" lon="6.61645">
        <ele>157.60000610352</ele>
        <time>2019-01-24T10:33:24Z</time>
      </trkpt>
      <trkpt lat="43.44344" lon="6.61633">
        <ele>159.60000610352</ele>
        <time>2019-01-24T10:33:41Z</time>
      </trkpt>
      <trkpt lat="43.44354" lon="6.61622">
        <ele>160.80000305176</ele>
        <time>2019-01-24T10:33:58Z</time>
      </trkpt>
      <trkpt lat="43.44362" lon="6.61612">
        <ele>162.39999389648</ele>
        <time>2019-01-24T10:34:15Z</time>
      </trkpt>
      <trkpt lat="43.44369" lon="6.61607">
        <ele>163.39999389648</ele>
        <time>2019-01-24T10:34:28Z</time>
      </trkpt>
      <trkpt lat="43.44376" lon="6.61602">
        <ele>165.19999694824</ele>
        <time>2019-01-24T10:34:40Z</time>
      </trkpt>
      <trkpt lat="43.44382" lon="6.61584">
        <ele>166</ele>
        <time>2019-01-24T10:34:57Z</time>
      </trkpt>
      <trkpt lat="43.44381" lon="6.61567">
        <ele>168.39999389648</ele>
        <time>2019-01-24T10:35:15Z</time>
      </trkpt>
      <trkpt lat="43.44382" lon="6.61553">
        <ele>169.39999389648</ele>
        <time>2019-01-24T10:35:29Z</time>
      </trkpt>
      <trkpt lat="43.44383" lon="6.61539">
        <ele>170.60000610352</ele>
        <time>2019-01-24T10:35:43Z</time>
      </trkpt>
      <trkpt lat="43.44384" lon="6.61525">
        <ele>172.39999389648</ele>
        <time>2019-01-24T10:35:58Z</time>
      </trkpt>
      <trkpt lat="43.44389" lon="6.61512">
        <ele>174</ele>
        <time>2019-01-24T10:36:12Z</time>
      </trkpt>
      <trkpt lat="43.44399" lon="6.61502">
        <ele>174.60000610352</ele>
        <time>2019-01-24T10:36:29Z</time>
      </trkpt>
      <trkpt lat="43.44404" lon="6.61498">
        <ele>175.80000305176</ele>
        <time>2019-01-24T10:37:02Z</time>
      </trkpt>
      <trkpt lat="43.44414" lon="6.61489">
        <ele>176.60000610352</ele>
        <time>2019-01-24T10:37:18Z</time>
      </trkpt>
      <trkpt lat="43.44418" lon="6.61486">
        <ele>176.80000305176</ele>
        <time>2019-01-24T10:37:22Z</time>
      </trkpt>
      <trkpt lat="43.44429" lon="6.61469">
        <ele>178.80000305176</ele>
        <time>2019-01-24T10:37:40Z</time>
      </trkpt>
      <trkpt lat="43.44436" lon="6.61457">
        <ele>180</ele>
        <time>2019-01-24T10:37:55Z</time>
      </trkpt>
      <trkpt lat="43.44441" lon="6.61442">
        <ele>181.39999389648</ele>
        <time>2019-01-24T10:38:12Z</time>
      </trkpt>
      <trkpt lat="43.44441" lon="6.61428">
        <ele>183</ele>
        <time>2019-01-24T10:38:29Z</time>
      </trkpt>
      <trkpt lat="43.44432" lon="6.61418">
        <ele>185.60000610352</ele>
        <time>2019-01-24T10:38:48Z</time>
      </trkpt>
      <trkpt lat="43.4441" lon="6.61407">
        <ele>187</ele>
        <time>2019-01-24T10:39:13Z</time>
      </trkpt>
      <trkpt lat="43.44409" lon="6.61406">
        <ele>187</ele>
        <time>2019-01-24T10:39:14Z</time>
      </trkpt>
      <trkpt lat="43.44395" lon="6.61401">
        <ele>188</ele>
        <time>2019-01-24T10:39:30Z</time>
      </trkpt>
      <trkpt lat="43.44391" lon="6.614">
        <ele>188.19999694824</ele>
        <time>2019-01-24T10:39:34Z</time>
      </trkpt>
      <trkpt lat="43.44383" lon="6.61399">
        <ele>188.60000610352</ele>
        <time>2019-01-24T10:39:42Z</time>
      </trkpt>
      <trkpt lat="43.44371" lon="6.61391">
        <ele>189.60000610352</ele>
        <time>2019-01-24T10:39:58Z</time>
      </trkpt>
      <trkpt lat="43.44368" lon="6.61389">
        <ele>190.19999694824</ele>
        <time>2019-01-24T10:40:02Z</time>
      </trkpt>
      <trkpt lat="43.44357" lon="6.61376">
        <ele>191</ele>
        <time>2019-01-24T10:40:18Z</time>
      </trkpt>
      <trkpt lat="43.4435" lon="6.61359">
        <ele>192.19999694824</ele>
        <time>2019-01-24T10:40:35Z</time>
      </trkpt>
      <trkpt lat="43.4435" lon="6.61355">
        <ele>192.39999389648</ele>
        <time>2019-01-24T10:40:38Z</time>
      </trkpt>
      <trkpt lat="43.44359" lon="6.61338">
        <ele>194</ele>
        <time>2019-01-24T10:40:56Z</time>
      </trkpt>
      <trkpt lat="43.4437" lon="6.6133">
        <ele>194.80000305176</ele>
        <time>2019-01-24T10:41:12Z</time>
      </trkpt>
      <trkpt lat="43.44379" lon="6.6134">
        <ele>196.60000610352</ele>
        <time>2019-01-24T10:41:27Z</time>
      </trkpt>
      <trkpt lat="43.44387" lon="6.6135">
        <ele>198.19999694824</ele>
        <time>2019-01-24T10:41:39Z</time>
      </trkpt>
      <trkpt lat="43.44398" lon="6.61351">
        <ele>199.19999694824</ele>
        <time>2019-01-24T10:41:53Z</time>
      </trkpt>
      <trkpt lat="43.44405" lon="6.61341">
        <ele>200.60000610352</ele>
        <time>2019-01-24T10:42:08Z</time>
      </trkpt>
      <trkpt lat="43.44406" lon="6.61317">
        <ele>201.80000305176</ele>
        <time>2019-01-24T10:42:28Z</time>
      </trkpt>
      <trkpt lat="43.44406" lon="6.61316">
        <ele>201.80000305176</ele>
        <time>2019-01-24T10:42:29Z</time>
      </trkpt>
      <trkpt lat="43.44407" lon="6.61299">
        <ele>203.39999389648</ele>
        <time>2019-01-24T10:42:47Z</time>
      </trkpt>
      <trkpt lat="43.44417" lon="6.61284">
        <ele>204.39999389648</ele>
        <time>2019-01-24T10:43:04Z</time>
      </trkpt>
      <trkpt lat="43.44423" lon="6.61273">
        <ele>206.39999389648</ele>
        <time>2019-01-24T10:43:18Z</time>
      </trkpt>
      <trkpt lat="43.44415" lon="6.61263">
        <ele>208.39999389648</ele>
        <time>2019-01-24T10:43:34Z</time>
      </trkpt>
      <trkpt lat="43.44398" lon="6.61249">
        <ele>210.19999694824</ele>
        <time>2019-01-24T10:43:58Z</time>
      </trkpt>
      <trkpt lat="43.44394" lon="6.61244">
        <ele>211.60000610352</ele>
        <time>2019-01-24T10:44:18Z</time>
      </trkpt>
      <trkpt lat="43.44381" lon="6.61232">
        <ele>212.19999694824</ele>
        <time>2019-01-24T10:44:42Z</time>
      </trkpt>
      <trkpt lat="43.44376" lon="6.61229">
        <ele>212.60000610352</ele>
        <time>2019-01-24T10:44:49Z</time>
      </trkpt>
      <trkpt lat="43.44361" lon="6.61227">
        <ele>213.19999694824</ele>
        <time>2019-01-24T10:45:04Z</time>
      </trkpt>
      <trkpt lat="43.44343" lon="6.61227">
        <ele>214.39999389648</ele>
        <time>2019-01-24T10:45:24Z</time>
      </trkpt>
      <trkpt lat="43.44334" lon="6.61222">
        <ele>216.19999694824</ele>
        <time>2019-01-24T10:45:41Z</time>
      </trkpt>
      <trkpt lat="43.44327" lon="6.61216">
        <ele>217.19999694824</ele>
        <time>2019-01-24T10:45:51Z</time>
      </trkpt>
      <trkpt lat="43.44318" lon="6.61201">
        <ele>218.19999694824</ele>
        <time>2019-01-24T10:46:05Z</time>
      </trkpt>
      <trkpt lat="43.44317" lon="6.61195">
        <ele>218</ele>
        <time>2019-01-24T10:46:09Z</time>
      </trkpt>
      <trkpt lat="43.44322" lon="6.61176">
        <ele>218.80000305176</ele>
        <time>2019-01-24T10:46:24Z</time>
      </trkpt>
      <trkpt lat="43.44328" lon="6.61159">
        <ele>219.80000305176</ele>
        <time>2019-01-24T10:46:39Z</time>
      </trkpt>
      <trkpt lat="43.44331" lon="6.61149">
        <ele>220.60000610352</ele>
        <time>2019-01-24T10:46:53Z</time>
      </trkpt>
      <trkpt lat="43.44332" lon="6.61134">
        <ele>220.80000305176</ele>
        <time>2019-01-24T10:47:05Z</time>
      </trkpt>
      <trkpt lat="43.44331" lon="6.61116">
        <ele>221.80000305176</ele>
        <time>2019-01-24T10:47:18Z</time>
      </trkpt>
      <trkpt lat="43.44323" lon="6.61099">
        <ele>222.19999694824</ele>
        <time>2019-01-24T10:47:33Z</time>
      </trkpt>
      <trkpt lat="43.44301" lon="6.61071">
        <ele>223.39999389648</ele>
        <time>2019-01-24T10:48:02Z</time>
      </trkpt>
      <trkpt lat="43.4429" lon="6.61048">
        <ele>225</ele>
        <time>2019-01-24T10:48:22Z</time>
      </trkpt>
      <trkpt lat="43.44285" lon="6.61031">
        <ele>226.60000610352</ele>
        <time>2019-01-24T10:48:42Z</time>
      </trkpt>
      <trkpt lat="43.44277" lon="6.61012">
        <ele>227.80000305176</ele>
        <time>2019-01-24T10:49:05Z</time>
      </trkpt>
      <trkpt lat="43.44265" lon="6.60985">
        <ele>229</ele>
        <time>2019-01-24T10:49:28Z</time>
      </trkpt>
      <trkpt lat="43.44264" lon="6.60988">
        <ele>229.80000305176</ele>
        <time>2019-01-24T10:49:52Z</time>
      </trkpt>
      <trkpt lat="43.44265" lon="6.60991">
        <ele>229.60000610352</ele>
        <time>2019-01-24T10:50:47Z</time>
      </trkpt>
      <trkpt lat="43.44262" lon="6.60969">
        <ele>230.39999389648</ele>
        <time>2019-01-24T10:51:06Z</time>
      </trkpt>
      <trkpt lat="43.44263" lon="6.60958">
        <ele>230.39999389648</ele>
        <time>2019-01-24T10:51:18Z</time>
      </trkpt>
      <trkpt lat="43.44259" lon="6.60931">
        <ele>230.39999389648</ele>
        <time>2019-01-24T10:51:35Z</time>
      </trkpt>
      <trkpt lat="43.44252" lon="6.60916">
        <ele>230.39999389648</ele>
        <time>2019-01-24T10:51:45Z</time>
      </trkpt>
      <trkpt lat="43.44249" lon="6.60908">
        <ele>230.19999694824</ele>
        <time>2019-01-24T10:51:50Z</time>
      </trkpt>
      <trkpt lat="43.44239" lon="6.60884">
        <ele>229.39999389648</ele>
        <time>2019-01-24T10:52:07Z</time>
      </trkpt>
      <trkpt lat="43.44229" lon="6.60865">
        <ele>227.80000305176</ele>
        <time>2019-01-24T10:52:22Z</time>
      </trkpt>
      <trkpt lat="43.44214" lon="6.60855">
        <ele>227.60000610352</ele>
        <time>2019-01-24T10:52:36Z</time>
      </trkpt>
      <trkpt lat="43.4421" lon="6.60851">
        <ele>227.60000610352</ele>
        <time>2019-01-24T10:52:42Z</time>
      </trkpt>
      <trkpt lat="43.44193" lon="6.60835">
        <ele>228.60000610352</ele>
        <time>2019-01-24T10:53:02Z</time>
      </trkpt>
      <trkpt lat="43.44179" lon="6.60819">
        <ele>228.19999694824</ele>
        <time>2019-01-24T10:53:17Z</time>
      </trkpt>
      <trkpt lat="43.44174" lon="6.60807">
        <ele>228</ele>
        <time>2019-01-24T10:53:29Z</time>
      </trkpt>
      <trkpt lat="43.44173" lon="6.60804">
        <ele>228</ele>
        <time>2019-01-24T10:53:32Z</time>
      </trkpt>
      <trkpt lat="43.44172" lon="6.60784">
        <ele>228</ele>
        <time>2019-01-24T10:53:45Z</time>
      </trkpt>
      <trkpt lat="43.44175" lon="6.60762">
        <ele>227.60000610352</ele>
        <time>2019-01-24T10:54:01Z</time>
      </trkpt>
      <trkpt lat="43.44176" lon="6.60744">
        <ele>227</ele>
        <time>2019-01-24T10:54:16Z</time>
      </trkpt>
      <trkpt lat="43.44186" lon="6.60732">
        <ele>228.19999694824</ele>
        <time>2019-01-24T10:54:39Z</time>
      </trkpt>
      <trkpt lat="43.44189" lon="6.60731">
        <ele>230.19999694824</ele>
        <time>2019-01-24T10:55:00Z</time>
      </trkpt>
      <trkpt lat="43.44192" lon="6.60737">
        <ele>230.39999389648</ele>
        <time>2019-01-24T10:55:20Z</time>
      </trkpt>
      <trkpt lat="43.44194" lon="6.60745">
        <ele>230.39999389648</ele>
        <time>2019-01-24T10:55:39Z</time>
      </trkpt>
      <trkpt lat="43.44193" lon="6.60744">
        <ele>230.60000610352</ele>
        <time>2019-01-24T10:56:17Z</time>
      </trkpt>
      <trkpt lat="43.44192" lon="6.60748">
        <ele>230.60000610352</ele>
        <time>2019-01-24T10:57:04Z</time>
      </trkpt>
      <trkpt lat="43.44193" lon="6.60744">
        <ele>230.60000610352</ele>
        <time>2019-01-24T10:57:58Z</time>
      </trkpt>
      <trkpt lat="43.44188" lon="6.60737">
        <ele>230.60000610352</ele>
        <time>2019-01-24T10:58:31Z</time>
      </trkpt>
      <trkpt lat="43.44181" lon="6.6073">
        <ele>230.19999694824</ele>
        <time>2019-01-24T10:58:48Z</time>
      </trkpt>
      <trkpt lat="43.44173" lon="6.60736">
        <ele>229.60000610352</ele>
        <time>2019-01-24T10:59:05Z</time>
      </trkpt>
      <trkpt lat="43.44173" lon="6.60734">
        <ele>229.39999389648</ele>
        <time>2019-01-24T10:59:07Z</time>
      </trkpt>
      <trkpt lat="43.44173" lon="6.60718">
        <ele>226.80000305176</ele>
        <time>2019-01-24T10:59:22Z</time>
      </trkpt>
      <trkpt lat="43.44174" lon="6.60699">
        <ele>226.60000610352</ele>
        <time>2019-01-24T10:59:46Z</time>
      </trkpt>
      <trkpt lat="43.44175" lon="6.60691">
        <ele>226.60000610352</ele>
        <time>2019-01-24T10:59:52Z</time>
      </trkpt>
      <trkpt lat="43.44181" lon="6.60658">
        <ele>226.60000610352</ele>
        <time>2019-01-24T11:00:14Z</time>
      </trkpt>
      <trkpt lat="43.44186" lon="6.60625">
        <ele>227.19999694824</ele>
        <time>2019-01-24T11:00:37Z</time>
      </trkpt>
      <trkpt lat="43.44196" lon="6.60598">
        <ele>228.19999694824</ele>
        <time>2019-01-24T11:00:58Z</time>
      </trkpt>
      <trkpt lat="43.44201" lon="6.60577">
        <ele>229.19999694824</ele>
        <time>2019-01-24T11:01:18Z</time>
      </trkpt>
      <trkpt lat="43.44206" lon="6.60554">
        <ele>229.60000610352</ele>
        <time>2019-01-24T11:01:37Z</time>
      </trkpt>
      <trkpt lat="43.44208" lon="6.60536">
        <ele>230.60000610352</ele>
        <time>2019-01-24T11:01:56Z</time>
      </trkpt>
      <trkpt lat="43.44209" lon="6.60514">
        <ele>232</ele>
        <time>2019-01-24T11:02:16Z</time>
      </trkpt>
      <trkpt lat="43.4421" lon="6.60487">
        <ele>232.80000305176</ele>
        <time>2019-01-24T11:02:38Z</time>
      </trkpt>
      <trkpt lat="43.4421" lon="6.60465">
        <ele>234.60000610352</ele>
        <time>2019-01-24T11:02:56Z</time>
      </trkpt>
      <trkpt lat="43.44209" lon="6.60451">
        <ele>236.19999694824</ele>
        <time>2019-01-24T11:03:11Z</time>
      </trkpt>
      <trkpt lat="43.44206" lon="6.60432">
        <ele>236.39999389648</ele>
        <time>2019-01-24T11:03:46Z</time>
      </trkpt>
      <trkpt lat="43.44206" lon="6.60408">
        <ele>238.60000610352</ele>
        <time>2019-01-24T11:04:08Z</time>
      </trkpt>
      <trkpt lat="43.44217" lon="6.60384">
        <ele>241.39999389648</ele>
        <time>2019-01-24T11:04:30Z</time>
      </trkpt>
      <trkpt lat="43.44225" lon="6.60371">
        <ele>242</ele>
        <time>2019-01-24T11:04:42Z</time>
      </trkpt>
      <trkpt lat="43.44234" lon="6.60349">
        <ele>242.60000610352</ele>
        <time>2019-01-24T11:05:03Z</time>
      </trkpt>
      <trkpt lat="43.44235" lon="6.60309">
        <ele>244.19999694824</ele>
        <time>2019-01-24T11:05:31Z</time>
      </trkpt>
      <trkpt lat="43.44236" lon="6.60283">
        <ele>246</ele>
        <time>2019-01-24T11:05:54Z</time>
      </trkpt>
      <trkpt lat="43.44235" lon="6.60271">
        <ele>246.60000610352</ele>
        <time>2019-01-24T11:06:03Z</time>
      </trkpt>
      <trkpt lat="43.44246" lon="6.60254">
        <ele>248</ele>
        <time>2019-01-24T11:06:22Z</time>
      </trkpt>
      <trkpt lat="43.44251" lon="6.60234">
        <ele>250</ele>
        <time>2019-01-24T11:06:41Z</time>
      </trkpt>
      <trkpt lat="43.44253" lon="6.60231">
        <ele>250.39999389648</ele>
        <time>2019-01-24T11:06:50Z</time>
      </trkpt>
      <trkpt lat="43.44258" lon="6.60214">
        <ele>251.39999389648</ele>
        <time>2019-01-24T11:07:06Z</time>
      </trkpt>
      <trkpt lat="43.44262" lon="6.60193">
        <ele>253.60000610352</ele>
        <time>2019-01-24T11:07:25Z</time>
      </trkpt>
      <trkpt lat="43.44266" lon="6.60178">
        <ele>254.60000610352</ele>
        <time>2019-01-24T11:07:39Z</time>
      </trkpt>
      <trkpt lat="43.44272" lon="6.60163">
        <ele>257</ele>
        <time>2019-01-24T11:07:55Z</time>
      </trkpt>
      <trkpt lat="43.44275" lon="6.6016">
        <ele>257.79998779297</ele>
        <time>2019-01-24T11:08:19Z</time>
      </trkpt>
      <trkpt lat="43.44285" lon="6.60151">
        <ele>257.79998779297</ele>
        <time>2019-01-24T11:08:36Z</time>
      </trkpt>
      <trkpt lat="43.44296" lon="6.60145">
        <ele>258.20001220703</ele>
        <time>2019-01-24T11:08:48Z</time>
      </trkpt>
      <trkpt lat="43.4431" lon="6.60139">
        <ele>260.79998779297</ele>
        <time>2019-01-24T11:09:07Z</time>
      </trkpt>
      <trkpt lat="43.44321" lon="6.60138">
        <ele>264</ele>
        <time>2019-01-24T11:09:24Z</time>
      </trkpt>
      <trkpt lat="43.44327" lon="6.60138">
        <ele>264.39999389648</ele>
        <time>2019-01-24T11:10:18Z</time>
      </trkpt>
      <trkpt lat="43.44326" lon="6.60131">
        <ele>265.20001220703</ele>
        <time>2019-01-24T11:10:54Z</time>
      </trkpt>
      <trkpt lat="43.44333" lon="6.60125">
        <ele>265.20001220703</ele>
        <time>2019-01-24T11:11:04Z</time>
      </trkpt>
      <trkpt lat="43.44335" lon="6.60123">
        <ele>265.20001220703</ele>
        <time>2019-01-24T11:11:06Z</time>
      </trkpt>
      <trkpt lat="43.44342" lon="6.60117">
        <ele>264</ele>
        <time>2019-01-24T11:11:15Z</time>
      </trkpt>
      <trkpt lat="43.44354" lon="6.60102">
        <ele>263.20001220703</ele>
        <time>2019-01-24T11:11:29Z</time>
      </trkpt>
      <trkpt lat="43.44359" lon="6.60094">
        <ele>263.20001220703</ele>
        <time>2019-01-24T11:11:38Z</time>
      </trkpt>
      <trkpt lat="43.44361" lon="6.60088">
        <ele>264</ele>
        <time>2019-01-24T11:11:43Z</time>
      </trkpt>
      <trkpt lat="43.44365" lon="6.60073">
        <ele>265.60000610352</ele>
        <time>2019-01-24T11:11:58Z</time>
      </trkpt>
      <trkpt lat="43.44367" lon="6.6006">
        <ele>266.39999389648</ele>
        <time>2019-01-24T11:12:09Z</time>
      </trkpt>
      <trkpt lat="43.44369" lon="6.60043">
        <ele>267.39999389648</ele>
        <time>2019-01-24T11:12:24Z</time>
      </trkpt>
      <trkpt lat="43.44368" lon="6.60026">
        <ele>268.60000610352</ele>
        <time>2019-01-24T11:12:39Z</time>
      </trkpt>
      <trkpt lat="43.44371" lon="6.60016">
        <ele>270</ele>
        <time>2019-01-24T11:12:51Z</time>
      </trkpt>
      <trkpt lat="43.44372" lon="6.60013">
        <ele>270.20001220703</ele>
        <time>2019-01-24T11:12:53Z</time>
      </trkpt>
      <trkpt lat="43.44378" lon="6.6">
        <ele>272</ele>
        <time>2019-01-24T11:13:09Z</time>
      </trkpt>
      <trkpt lat="43.44382" lon="6.5999">
        <ele>274.20001220703</ele>
        <time>2019-01-24T11:13:25Z</time>
      </trkpt>
      <trkpt lat="43.44385" lon="6.59989">
        <ele>276.60000610352</ele>
        <time>2019-01-24T11:14:05Z</time>
      </trkpt>
      <trkpt lat="43.44387" lon="6.59983">
        <ele>277</ele>
        <time>2019-01-24T11:14:41Z</time>
      </trkpt>
      <trkpt lat="43.44389" lon="6.59966">
        <ele>278.20001220703</ele>
        <time>2019-01-24T11:14:56Z</time>
      </trkpt>
      <trkpt lat="43.444" lon="6.5996">
        <ele>279.79998779297</ele>
        <time>2019-01-24T11:15:12Z</time>
      </trkpt>
      <trkpt lat="43.44401" lon="6.59962">
        <ele>281.79998779297</ele>
        <time>2019-01-24T11:15:25Z</time>
      </trkpt>
      <trkpt lat="43.44401" lon="6.5996">
        <ele>282</ele>
        <time>2019-01-24T11:16:06Z</time>
      </trkpt>
      <trkpt lat="43.44403" lon="6.59958">
        <ele>282.60000610352</ele>
        <time>2019-01-24T11:16:28Z</time>
      </trkpt>
      <trkpt lat="43.44405" lon="6.59955">
        <ele>282.60000610352</ele>
        <time>2019-01-24T11:16:32Z</time>
      </trkpt>
      <trkpt lat="43.44409" lon="6.59943">
        <ele>282.60000610352</ele>
        <time>2019-01-24T11:16:42Z</time>
      </trkpt>
      <trkpt lat="43.44421" lon="6.59928">
        <ele>282.60000610352</ele>
        <time>2019-01-24T11:16:55Z</time>
      </trkpt>
      <trkpt lat="43.44424" lon="6.5992">
        <ele>282.60000610352</ele>
        <time>2019-01-24T11:17:03Z</time>
      </trkpt>
      <trkpt lat="43.44426" lon="6.59916">
        <ele>282.79998779297</ele>
        <time>2019-01-24T11:17:06Z</time>
      </trkpt>
      <trkpt lat="43.44429" lon="6.59907">
        <ele>283.20001220703</ele>
        <time>2019-01-24T11:17:14Z</time>
      </trkpt>
      <trkpt lat="43.44431" lon="6.599">
        <ele>283.60000610352</ele>
        <time>2019-01-24T11:17:19Z</time>
      </trkpt>
      <trkpt lat="43.44441" lon="6.59883">
        <ele>284</ele>
        <time>2019-01-24T11:17:35Z</time>
      </trkpt>
      <trkpt lat="43.44443" lon="6.59881">
        <ele>284</ele>
        <time>2019-01-24T11:17:37Z</time>
      </trkpt>
      <trkpt lat="43.44447" lon="6.59873">
        <ele>284.60000610352</ele>
        <time>2019-01-24T11:17:44Z</time>
      </trkpt>
      <trkpt lat="43.44451" lon="6.59851">
        <ele>285.79998779297</ele>
        <time>2019-01-24T11:18:01Z</time>
      </trkpt>
      <trkpt lat="43.44453" lon="6.59846">
        <ele>286.20001220703</ele>
        <time>2019-01-24T11:18:05Z</time>
      </trkpt>
      <trkpt lat="43.44463" lon="6.59835">
        <ele>287</ele>
        <time>2019-01-24T11:18:23Z</time>
      </trkpt>
      <trkpt lat="43.44474" lon="6.59832">
        <ele>289.60000610352</ele>
        <time>2019-01-24T11:18:40Z</time>
      </trkpt>
      <trkpt lat="43.4449" lon="6.5983">
        <ele>291.20001220703</ele>
        <time>2019-01-24T11:18:56Z</time>
      </trkpt>
      <trkpt lat="43.44503" lon="6.59828">
        <ele>292.79998779297</ele>
        <time>2019-01-24T11:19:13Z</time>
      </trkpt>
      <trkpt lat="43.44516" lon="6.59819">
        <ele>294.39999389648</ele>
        <time>2019-01-24T11:19:31Z</time>
      </trkpt>
      <trkpt lat="43.44532" lon="6.59809">
        <ele>294.79998779297</ele>
        <time>2019-01-24T11:19:51Z</time>
      </trkpt>
      <trkpt lat="43.44544" lon="6.59802">
        <ele>296.20001220703</ele>
        <time>2019-01-24T11:20:08Z</time>
      </trkpt>
      <trkpt lat="43.44556" lon="6.59807">
        <ele>297.79998779297</ele>
        <time>2019-01-24T11:20:26Z</time>
      </trkpt>
      <trkpt lat="43.44562" lon="6.59808">
        <ele>300.39999389648</ele>
        <time>2019-01-24T11:20:47Z</time>
      </trkpt>
      <trkpt lat="43.44572" lon="6.59818">
        <ele>301.39999389648</ele>
        <time>2019-01-24T11:21:01Z</time>
      </trkpt>
      <trkpt lat="43.44582" lon="6.59822">
        <ele>303.60000610352</ele>
        <time>2019-01-24T11:21:15Z</time>
      </trkpt>
      <trkpt lat="43.44594" lon="6.59827">
        <ele>305.60000610352</ele>
        <time>2019-01-24T11:21:30Z</time>
      </trkpt>
      <trkpt lat="43.44604" lon="6.59828">
        <ele>307.20001220703</ele>
        <time>2019-01-24T11:21:44Z</time>
      </trkpt>
      <trkpt lat="43.44616" lon="6.59823">
        <ele>308.79998779297</ele>
        <time>2019-01-24T11:21:59Z</time>
      </trkpt>
      <trkpt lat="43.4463" lon="6.59818">
        <ele>310.39999389648</ele>
        <time>2019-01-24T11:22:15Z</time>
      </trkpt>
      <trkpt lat="43.44647" lon="6.59811">
        <ele>311</ele>
        <time>2019-01-24T11:22:33Z</time>
      </trkpt>
      <trkpt lat="43.44658" lon="6.59798">
        <ele>308.79998779297</ele>
        <time>2019-01-24T11:22:47Z</time>
      </trkpt>
      <trkpt lat="43.4467" lon="6.59784">
        <ele>309.39999389648</ele>
        <time>2019-01-24T11:23:03Z</time>
      </trkpt>
      <trkpt lat="43.44673" lon="6.59783">
        <ele>309.60000610352</ele>
        <time>2019-01-24T11:23:05Z</time>
      </trkpt>
      <trkpt lat="43.44675" lon="6.59779">
        <ele>309.79998779297</ele>
        <time>2019-01-24T11:23:08Z</time>
      </trkpt>
      <trkpt lat="43.44687" lon="6.59775">
        <ele>310.39999389648</ele>
        <time>2019-01-24T11:23:22Z</time>
      </trkpt>
      <trkpt lat="43.44702" lon="6.59784">
        <ele>312.20001220703</ele>
        <time>2019-01-24T11:23:39Z</time>
      </trkpt>
      <trkpt lat="43.44708" lon="6.59795">
        <ele>313.20001220703</ele>
        <time>2019-01-24T11:23:51Z</time>
      </trkpt>
      <trkpt lat="43.44708" lon="6.59796">
        <ele>313.20001220703</ele>
        <time>2019-01-24T11:23:52Z</time>
      </trkpt>
      <trkpt lat="43.44715" lon="6.59814">
        <ele>314.39999389648</ele>
        <time>2019-01-24T11:24:06Z</time>
      </trkpt>
      <trkpt lat="43.44717" lon="6.59821">
        <ele>315</ele>
        <time>2019-01-24T11:24:18Z</time>
      </trkpt>
      <trkpt lat="43.4471" lon="6.59829">
        <ele>315.60000610352</ele>
        <time>2019-01-24T11:24:37Z</time>
      </trkpt>
      <trkpt lat="43.44699" lon="6.59847">
        <ele>316.39999389648</ele>
        <time>2019-01-24T11:25:00Z</time>
      </trkpt>
      <trkpt lat="43.44709" lon="6.59877">
        <ele>318.60000610352</ele>
        <time>2019-01-24T11:25:24Z</time>
      </trkpt>
      <trkpt lat="43.44706" lon="6.59885">
        <ele>319</ele>
        <time>2019-01-24T11:25:31Z</time>
      </trkpt>
      <trkpt lat="43.44705" lon="6.59891">
        <ele>319.39999389648</ele>
        <time>2019-01-24T11:25:34Z</time>
      </trkpt>
      <trkpt lat="43.44698" lon="6.59902">
        <ele>320.20001220703</ele>
        <time>2019-01-24T11:25:44Z</time>
      </trkpt>
      <trkpt lat="43.44678" lon="6.59908">
        <ele>320.39999389648</ele>
        <time>2019-01-24T11:26:06Z</time>
      </trkpt>
      <trkpt lat="43.44665" lon="6.59917">
        <ele>321</ele>
        <time>2019-01-24T11:26:29Z</time>
      </trkpt>
      <trkpt lat="43.44657" lon="6.59936">
        <ele>322.20001220703</ele>
        <time>2019-01-24T11:26:49Z</time>
      </trkpt>
      <trkpt lat="43.44652" lon="6.59947">
        <ele>322.60000610352</ele>
        <time>2019-01-24T11:26:58Z</time>
      </trkpt>
      <trkpt lat="43.44646" lon="6.59966">
        <ele>323.39999389648</ele>
        <time>2019-01-24T11:27:11Z</time>
      </trkpt>
      <trkpt lat="43.44644" lon="6.59972">
        <ele>324</ele>
        <time>2019-01-24T11:27:16Z</time>
      </trkpt>
      <trkpt lat="43.44643" lon="6.5998">
        <ele>324.39999389648</ele>
        <time>2019-01-24T11:27:20Z</time>
      </trkpt>
      <trkpt lat="43.44641" lon="6.59989">
        <ele>324.39999389648</ele>
        <time>2019-01-24T11:27:25Z</time>
      </trkpt>
      <trkpt lat="43.44642" lon="6.59995">
        <ele>324.60000610352</ele>
        <time>2019-01-24T11:27:29Z</time>
      </trkpt>
      <trkpt lat="43.44642" lon="6.59999">
        <ele>324.60000610352</ele>
        <time>2019-01-24T11:27:31Z</time>
      </trkpt>
      <trkpt lat="43.44643" lon="6.60012">
        <ele>325.39999389648</ele>
        <time>2019-01-24T11:27:42Z</time>
      </trkpt>
      <trkpt lat="43.4464" lon="6.60036">
        <ele>326.60000610352</ele>
        <time>2019-01-24T11:28:01Z</time>
      </trkpt>
      <trkpt lat="43.44639" lon="6.60041">
        <ele>326.79998779297</ele>
        <time>2019-01-24T11:28:05Z</time>
      </trkpt>
      <trkpt lat="43.44638" lon="6.60047">
        <ele>327.39999389648</ele>
        <time>2019-01-24T11:28:09Z</time>
      </trkpt>
      <trkpt lat="43.44633" lon="6.60064">
        <ele>329</ele>
        <time>2019-01-24T11:28:28Z</time>
      </trkpt>
      <trkpt lat="43.4464" lon="6.60082">
        <ele>331.79998779297</ele>
        <time>2019-01-24T11:28:47Z</time>
      </trkpt>
      <trkpt lat="43.44654" lon="6.60099">
        <ele>332.60000610352</ele>
        <time>2019-01-24T11:29:05Z</time>
      </trkpt>
      <trkpt lat="43.44663" lon="6.60115">
        <ele>334.60000610352</ele>
        <time>2019-01-24T11:29:24Z</time>
      </trkpt>
      <trkpt lat="43.44668" lon="6.60117">
        <ele>335.20001220703</ele>
        <time>2019-01-24T11:29:30Z</time>
      </trkpt>
      <trkpt lat="43.44671" lon="6.60122">
        <ele>336.39999389648</ele>
        <time>2019-01-24T11:29:47Z</time>
      </trkpt>
      <trkpt lat="43.4467" lon="6.60129">
        <ele>338</ele>
        <time>2019-01-24T11:30:10Z</time>
      </trkpt>
      <trkpt lat="43.44666" lon="6.60132">
        <ele>338.60000610352</ele>
        <time>2019-01-24T11:30:27Z</time>
      </trkpt>
      <trkpt lat="43.44668" lon="6.60139">
        <ele>339.20001220703</ele>
        <time>2019-01-24T11:30:46Z</time>
      </trkpt>
      <trkpt lat="43.44671" lon="6.60136">
        <ele>339.39999389648</ele>
        <time>2019-01-24T11:31:41Z</time>
      </trkpt>
      <trkpt lat="43.44668" lon="6.60137">
        <ele>339.39999389648</ele>
        <time>2019-01-24T11:32:22Z</time>
      </trkpt>
      <trkpt lat="43.44665" lon="6.60129">
        <ele>338.60000610352</ele>
        <time>2019-01-24T11:32:49Z</time>
      </trkpt>
      <trkpt lat="43.44663" lon="6.60117">
        <ele>336.79998779297</ele>
        <time>2019-01-24T11:33:09Z</time>
      </trkpt>
      <trkpt lat="43.44669" lon="6.60118">
        <ele>336.39999389648</ele>
        <time>2019-01-24T11:33:26Z</time>
      </trkpt>
      <trkpt lat="43.44679" lon="6.60109">
        <ele>336.39999389648</ele>
        <time>2019-01-24T11:33:48Z</time>
      </trkpt>
      <trkpt lat="43.4469" lon="6.60091">
        <ele>336.79998779297</ele>
        <time>2019-01-24T11:34:06Z</time>
      </trkpt>
      <trkpt lat="43.44704" lon="6.60075">
        <ele>337.39999389648</ele>
        <time>2019-01-24T11:34:25Z</time>
      </trkpt>
      <trkpt lat="43.44721" lon="6.60069">
        <ele>336.79998779297</ele>
        <time>2019-01-24T11:34:47Z</time>
      </trkpt>
      <trkpt lat="43.44734" lon="6.60067">
        <ele>339.20001220703</ele>
        <time>2019-01-24T11:35:05Z</time>
      </trkpt>
      <trkpt lat="43.44749" lon="6.6007">
        <ele>342.20001220703</ele>
        <time>2019-01-24T11:35:26Z</time>
      </trkpt>
      <trkpt lat="43.44759" lon="6.60081">
        <ele>345.20001220703</ele>
        <time>2019-01-24T11:35:47Z</time>
      </trkpt>
      <trkpt lat="43.44771" lon="6.60087">
        <ele>347.20001220703</ele>
        <time>2019-01-24T11:36:07Z</time>
      </trkpt>
      <trkpt lat="43.44782" lon="6.60097">
        <ele>349.60000610352</ele>
        <time>2019-01-24T11:36:26Z</time>
      </trkpt>
      <trkpt lat="43.44789" lon="6.60098">
        <ele>352</ele>
        <time>2019-01-24T11:36:42Z</time>
      </trkpt>
      <trkpt lat="43.44803" lon="6.60106">
        <ele>355.20001220703</ele>
        <time>2019-01-24T11:37:07Z</time>
      </trkpt>
      <trkpt lat="43.44813" lon="6.60114">
        <ele>358.20001220703</ele>
        <time>2019-01-24T11:37:30Z</time>
      </trkpt>
      <trkpt lat="43.44816" lon="6.60129">
        <ele>361.20001220703</ele>
        <time>2019-01-24T11:37:53Z</time>
      </trkpt>
      <trkpt lat="43.44822" lon="6.60136">
        <ele>364.39999389648</ele>
        <time>2019-01-24T11:38:15Z</time>
      </trkpt>
      <trkpt lat="43.44823" lon="6.60148">
        <ele>367.39999389648</ele>
        <time>2019-01-24T11:38:40Z</time>
      </trkpt>
      <trkpt lat="43.44826" lon="6.6016">
        <ele>370.60000610352</ele>
        <time>2019-01-24T11:39:06Z</time>
      </trkpt>
      <trkpt lat="43.44826" lon="6.60162">
        <ele>370.79998779297</ele>
        <time>2019-01-24T11:39:08Z</time>
      </trkpt>
      <trkpt lat="43.44828" lon="6.60166">
        <ele>374</ele>
        <time>2019-01-24T11:39:34Z</time>
      </trkpt>
      <trkpt lat="43.44835" lon="6.60176">
        <ele>376.39999389648</ele>
        <time>2019-01-24T11:39:58Z</time>
      </trkpt>
      <trkpt lat="43.44835" lon="6.60187">
        <ele>379.39999389648</ele>
        <time>2019-01-24T11:40:22Z</time>
      </trkpt>
      <trkpt lat="43.4484" lon="6.60193">
        <ele>382.60000610352</ele>
        <time>2019-01-24T11:40:39Z</time>
      </trkpt>
      <trkpt lat="43.44845" lon="6.602">
        <ele>385.60000610352</ele>
        <time>2019-01-24T11:41:03Z</time>
      </trkpt>
      <trkpt lat="43.44843" lon="6.60208">
        <ele>388.39999389648</ele>
        <time>2019-01-24T11:41:36Z</time>
      </trkpt>
      <trkpt lat="43.44844" lon="6.60216">
        <ele>391.20001220703</ele>
        <time>2019-01-24T11:41:56Z</time>
      </trkpt>
      <trkpt lat="43.44851" lon="6.60222">
        <ele>394.39999389648</ele>
        <time>2019-01-24T11:42:17Z</time>
      </trkpt>
      <trkpt lat="43.44855" lon="6.60233">
        <ele>397.39999389648</ele>
        <time>2019-01-24T11:42:41Z</time>
      </trkpt>
      <trkpt lat="43.44859" lon="6.6024">
        <ele>400.60000610352</ele>
        <time>2019-01-24T11:42:55Z</time>
      </trkpt>
      <trkpt lat="43.44861" lon="6.60247">
        <ele>403.60000610352</ele>
        <time>2019-01-24T11:43:11Z</time>
      </trkpt>
      <trkpt lat="43.44859" lon="6.60249">
        <ele>405.79998779297</ele>
        <time>2019-01-24T11:43:39Z</time>
      </trkpt>
      <trkpt lat="43.44855" lon="6.60254">
        <ele>407.39999389648</ele>
        <time>2019-01-24T11:44:01Z</time>
      </trkpt>
      <trkpt lat="43.44853" lon="6.60262">
        <ele>409.79998779297</ele>
        <time>2019-01-24T11:44:36Z</time>
      </trkpt>
      <trkpt lat="43.44851" lon="6.60268">
        <ele>412.79998779297</ele>
        <time>2019-01-24T11:44:52Z</time>
      </trkpt>
      <trkpt lat="43.44846" lon="6.60277">
        <ele>416</ele>
        <time>2019-01-24T11:45:11Z</time>
      </trkpt>
      <trkpt lat="43.44845" lon="6.60285">
        <ele>419</ele>
        <time>2019-01-24T11:45:32Z</time>
      </trkpt>
      <trkpt lat="43.44846" lon="6.60293">
        <ele>422</ele>
        <time>2019-01-24T11:45:54Z</time>
      </trkpt>
      <trkpt lat="43.44842" lon="6.60301">
        <ele>425</ele>
        <time>2019-01-24T11:46:14Z</time>
      </trkpt>
      <trkpt lat="43.44837" lon="6.60304">
        <ele>428.20001220703</ele>
        <time>2019-01-24T11:46:37Z</time>
      </trkpt>
      <trkpt lat="43.44832" lon="6.60312">
        <ele>431</ele>
        <time>2019-01-24T11:47:09Z</time>
      </trkpt>
      <trkpt lat="43.44832" lon="6.60315">
        <ele>434</ele>
        <time>2019-01-24T11:47:37Z</time>
      </trkpt>
      <trkpt lat="43.44832" lon="6.60316">
        <ele>434.60000610352</ele>
        <time>2019-01-24T11:47:42Z</time>
      </trkpt>
      <trkpt lat="43.44834" lon="6.60321">
        <ele>437</ele>
        <time>2019-01-24T11:48:10Z</time>
      </trkpt>
      <trkpt lat="43.44833" lon="6.60322">
        <ele>437</ele>
        <time>2019-01-24T11:48:12Z</time>
      </trkpt>
      <trkpt lat="43.44837" lon="6.60321">
        <ele>438.60000610352</ele>
        <time>2019-01-24T11:48:26Z</time>
      </trkpt>
      <trkpt lat="43.4484" lon="6.60329">
        <ele>441.79998779297</ele>
        <time>2019-01-24T11:48:49Z</time>
      </trkpt>
      <trkpt lat="43.44845" lon="6.60332">
        <ele>444.79998779297</ele>
        <time>2019-01-24T11:49:11Z</time>
      </trkpt>
      <trkpt lat="43.4485" lon="6.60328">
        <ele>447.79998779297</ele>
        <time>2019-01-24T11:49:35Z</time>
      </trkpt>
      <trkpt lat="43.4486" lon="6.60334">
        <ele>449.79998779297</ele>
        <time>2019-01-24T11:50:09Z</time>
      </trkpt>
      <trkpt lat="43.44859" lon="6.60339">
        <ele>452.79998779297</ele>
        <time>2019-01-24T11:50:29Z</time>
      </trkpt>
      <trkpt lat="43.44857" lon="6.60345">
        <ele>456</ele>
        <time>2019-01-24T11:50:58Z</time>
      </trkpt>
      <trkpt lat="43.44858" lon="6.60351">
        <ele>459</ele>
        <time>2019-01-24T11:51:14Z</time>
      </trkpt>
      <trkpt lat="43.44859" lon="6.60354">
        <ele>460.20001220703</ele>
        <time>2019-01-24T11:51:20Z</time>
      </trkpt>
      <trkpt lat="43.44858" lon="6.60362">
        <ele>463.39999389648</ele>
        <time>2019-01-24T11:51:42Z</time>
      </trkpt>
      <trkpt lat="43.44858" lon="6.60363">
        <ele>466.60000610352</ele>
        <time>2019-01-24T11:52:00Z</time>
      </trkpt>
      <trkpt lat="43.44863" lon="6.60369">
        <ele>469.60000610352</ele>
        <time>2019-01-24T11:52:20Z</time>
      </trkpt>
      <trkpt lat="43.44866" lon="6.60375">
        <ele>472.79998779297</ele>
        <time>2019-01-24T11:52:49Z</time>
      </trkpt>
      <trkpt lat="43.44864" lon="6.60379">
        <ele>475.79998779297</ele>
        <time>2019-01-24T11:53:04Z</time>
      </trkpt>
      <trkpt lat="43.44864" lon="6.60389">
        <ele>479</ele>
        <time>2019-01-24T11:53:31Z</time>
      </trkpt>
      <trkpt lat="43.44868" lon="6.604">
        <ele>481.20001220703</ele>
        <time>2019-01-24T11:53:50Z</time>
      </trkpt>
      <trkpt lat="43.44875" lon="6.60409">
        <ele>484.39999389648</ele>
        <time>2019-01-24T11:54:16Z</time>
      </trkpt>
      <trkpt lat="43.44877" lon="6.6041">
        <ele>485.39999389648</ele>
        <time>2019-01-24T11:54:23Z</time>
      </trkpt>
      <trkpt lat="43.44885" lon="6.60415">
        <ele>488.60000610352</ele>
        <time>2019-01-24T11:54:44Z</time>
      </trkpt>
      <trkpt lat="43.44891" lon="6.60415">
        <ele>491.79998779297</ele>
        <time>2019-01-24T11:54:59Z</time>
      </trkpt>
      <trkpt lat="43.44893" lon="6.60383">
        <ele>493.20001220703</ele>
        <time>2019-01-24T11:55:25Z</time>
      </trkpt>
      <trkpt lat="43.44895" lon="6.60376">
        <ele>493.79998779297</ele>
        <time>2019-01-24T11:55:37Z</time>
      </trkpt>
      <trkpt lat="43.44899" lon="6.60377">
        <ele>497</ele>
        <time>2019-01-24T11:55:59Z</time>
      </trkpt>
      <trkpt lat="43.44905" lon="6.60376">
        <ele>500</ele>
        <time>2019-01-24T11:56:21Z</time>
      </trkpt>
      <trkpt lat="43.44909" lon="6.6038">
        <ele>503</ele>
        <time>2019-01-24T11:56:45Z</time>
      </trkpt>
      <trkpt lat="43.4491" lon="6.60384">
        <ele>506.20001220703</ele>
        <time>2019-01-24T11:57:06Z</time>
      </trkpt>
      <trkpt lat="43.44909" lon="6.60389">
        <ele>509.20001220703</ele>
        <time>2019-01-24T11:57:29Z</time>
      </trkpt>
      <trkpt lat="43.44908" lon="6.6039">
        <ele>510.60000610352</ele>
        <time>2019-01-24T11:57:54Z</time>
      </trkpt>
      <trkpt lat="43.44911" lon="6.60391">
        <ele>510</ele>
        <time>2019-01-24T11:58:34Z</time>
      </trkpt>
      <trkpt lat="43.44915" lon="6.60393">
        <ele>509.39999389648</ele>
        <time>2019-01-24T11:59:19Z</time>
      </trkpt>
      <trkpt lat="43.44917" lon="6.60394">
        <ele>510.20001220703</ele>
        <time>2019-01-24T11:59:39Z</time>
      </trkpt>
      <trkpt lat="43.4492" lon="6.60392">
        <ele>510.39999389648</ele>
        <time>2019-01-24T12:00:32Z</time>
      </trkpt>
      <trkpt lat="43.4492" lon="6.60388">
        <ele>510.39999389648</ele>
        <time>2019-01-24T12:00:52Z</time>
      </trkpt>
      <trkpt lat="43.44919" lon="6.60387">
        <ele>512</ele>
        <time>2019-01-24T12:01:22Z</time>
      </trkpt>
      <trkpt lat="43.44922" lon="6.60387">
        <ele>511.39999389648</ele>
        <time>2019-01-24T12:01:47Z</time>
      </trkpt>
      <trkpt lat="43.44925" lon="6.60389">
        <ele>514.59997558594</ele>
        <time>2019-01-24T12:02:15Z</time>
      </trkpt>
      <trkpt lat="43.44926" lon="6.60387">
        <ele>515.40002441406</ele>
        <time>2019-01-24T12:02:45Z</time>
      </trkpt>
      <trkpt lat="43.44927" lon="6.60383">
        <ele>514.20001220703</ele>
        <time>2019-01-24T12:03:17Z</time>
      </trkpt>
      <trkpt lat="43.44923" lon="6.60386">
        <ele>514</ele>
        <time>2019-01-24T12:03:34Z</time>
      </trkpt>
      <trkpt lat="43.44923" lon="6.60384">
        <ele>513.79998779297</ele>
        <time>2019-01-24T12:04:14Z</time>
      </trkpt>
      <trkpt lat="43.44923" lon="6.60379">
        <ele>513.20001220703</ele>
        <time>2019-01-24T12:05:00Z</time>
      </trkpt>
      <trkpt lat="43.44922" lon="6.60384">
        <ele>513.59997558594</ele>
        <time>2019-01-24T12:05:37Z</time>
      </trkpt>
      <trkpt lat="43.44923" lon="6.60383">
        <ele>513.40002441406</ele>
        <time>2019-01-24T12:06:36Z</time>
      </trkpt>
      <trkpt lat="43.44924" lon="6.60384">
        <ele>513.79998779297</ele>
        <time>2019-01-24T12:07:22Z</time>
      </trkpt>
      <trkpt lat="43.44926" lon="6.60383">
        <ele>513.40002441406</ele>
        <time>2019-01-24T12:08:01Z</time>
      </trkpt>
      <trkpt lat="43.44925" lon="6.60388">
        <ele>515.20001220703</ele>
        <time>2019-01-24T12:08:24Z</time>
      </trkpt>
      <trkpt lat="43.44927" lon="6.60389">
        <ele>516.20001220703</ele>
        <time>2019-01-24T12:08:51Z</time>
      </trkpt>
      <trkpt lat="43.44928" lon="6.60388">
        <ele>516</ele>
        <time>2019-01-24T12:09:31Z</time>
      </trkpt>
      <trkpt lat="43.44928" lon="6.60387">
        <ele>516</ele>
        <time>2019-01-24T12:09:55Z</time>
      </trkpt>
      <trkpt lat="43.44928" lon="6.60389">
        <ele>516</ele>
        <time>2019-01-24T12:10:38Z</time>
      </trkpt>
      <trkpt lat="43.44926" lon="6.60391">
        <ele>515.59997558594</ele>
        <time>2019-01-24T12:11:03Z</time>
      </trkpt>
      <trkpt lat="43.44926" lon="6.60389">
        <ele>514.79998779297</ele>
        <time>2019-01-24T12:13:10Z</time>
      </trkpt>
      <trkpt lat="43.44927" lon="6.60391">
        <ele>514.79998779297</ele>
        <time>2019-01-24T12:15:49Z</time>
      </trkpt>
      <trkpt lat="43.44926" lon="6.60391">
        <ele>514.59997558594</ele>
        <time>2019-01-24T12:18:21Z</time>
      </trkpt>
      <trkpt lat="43.44926" lon="6.60391">
        <ele>514.59997558594</ele>
        <time>2019-01-24T12:20:32Z</time>
      </trkpt>
      <trkpt lat="43.44927" lon="6.60391">
        <ele>514.59997558594</ele>
        <time>2019-01-24T12:22:06Z</time>
      </trkpt>
      <trkpt lat="43.44926" lon="6.60391">
        <ele>514.20001220703</ele>
        <time>2019-01-24T12:23:02Z</time>
      </trkpt>
      <trkpt lat="43.44927" lon="6.60391">
        <ele>514.40002441406</ele>
        <time>2019-01-24T12:24:58Z</time>
      </trkpt>
      <trkpt lat="43.44928" lon="6.60392">
        <ele>514.40002441406</ele>
        <time>2019-01-24T12:26:06Z</time>
      </trkpt>
      <trkpt lat="43.44929" lon="6.60391">
        <ele>514.40002441406</ele>
        <time>2019-01-24T12:27:06Z</time>
      </trkpt>
      <trkpt lat="43.44928" lon="6.60391">
        <ele>514.59997558594</ele>
        <time>2019-01-24T12:28:09Z</time>
      </trkpt>
      <trkpt lat="43.44929" lon="6.6039">
        <ele>514.20001220703</ele>
        <time>2019-01-24T12:30:07Z</time>
      </trkpt>
      <trkpt lat="43.44929" lon="6.6039">
        <ele>513.40002441406</ele>
        <time>2019-01-24T12:31:34Z</time>
      </trkpt>
      <trkpt lat="43.44929" lon="6.6039">
        <ele>513.20001220703</ele>
        <time>2019-01-24T12:32:51Z</time>
      </trkpt>
      <trkpt lat="43.44929" lon="6.60389">
        <ele>513.20001220703</ele>
        <time>2019-01-24T12:34:32Z</time>
      </trkpt>
      <trkpt lat="43.44929" lon="6.60389">
        <ele>513.20001220703</ele>
        <time>2019-01-24T12:35:46Z</time>
      </trkpt>
      <trkpt lat="43.44929" lon="6.60393">
        <ele>513.20001220703</ele>
        <time>2019-01-24T12:37:27Z</time>
      </trkpt>
      <trkpt lat="43.44929" lon="6.60392">
        <ele>513</ele>
        <time>2019-01-24T12:39:06Z</time>
      </trkpt>
      <trkpt lat="43.44929" lon="6.60392">
        <ele>513.59997558594</ele>
        <time>2019-01-24T12:40:36Z</time>
      </trkpt>
      <trkpt lat="43.44929" lon="6.60392">
        <ele>513.40002441406</ele>
        <time>2019-01-24T12:41:52Z</time>
      </trkpt>
      <trkpt lat="43.44929" lon="6.60391">
        <ele>513.40002441406</ele>
        <time>2019-01-24T12:43:27Z</time>
      </trkpt>
      <trkpt lat="43.44929" lon="6.60392">
        <ele>513.40002441406</ele>
        <time>2019-01-24T12:44:43Z</time>
      </trkpt>
      <trkpt lat="43.44928" lon="6.60393">
        <ele>513.40002441406</ele>
        <time>2019-01-24T12:46:04Z</time>
      </trkpt>
      <trkpt lat="43.44929" lon="6.60391">
        <ele>513.40002441406</ele>
        <time>2019-01-24T12:47:11Z</time>
      </trkpt>
      <trkpt lat="43.44928" lon="6.60392">
        <ele>513.20001220703</ele>
        <time>2019-01-24T12:48:09Z</time>
      </trkpt>
      <trkpt lat="43.44929" lon="6.60392">
        <ele>513.59997558594</ele>
        <time>2019-01-24T12:49:57Z</time>
      </trkpt>
      <trkpt lat="43.44929" lon="6.60392">
        <ele>513.59997558594</ele>
        <time>2019-01-24T12:51:14Z</time>
      </trkpt>
      <trkpt lat="43.44929" lon="6.60392">
        <ele>513.79998779297</ele>
        <time>2019-01-24T12:52:31Z</time>
      </trkpt>
      <trkpt lat="43.44929" lon="6.60393">
        <ele>513.79998779297</ele>
        <time>2019-01-24T12:54:00Z</time>
      </trkpt>
      <trkpt lat="43.44928" lon="6.60393">
        <ele>514</ele>
        <time>2019-01-24T12:55:49Z</time>
      </trkpt>
      <trkpt lat="43.44929" lon="6.60393">
        <ele>514</ele>
        <time>2019-01-24T12:58:08Z</time>
      </trkpt>
      <trkpt lat="43.44929" lon="6.60393">
        <ele>513.79998779297</ele>
        <time>2019-01-24T12:59:46Z</time>
      </trkpt>
      <trkpt lat="43.44929" lon="6.60393">
        <ele>513.79998779297</ele>
        <time>2019-01-24T13:01:10Z</time>
      </trkpt>
      <trkpt lat="43.44929" lon="6.60392">
        <ele>513.59997558594</ele>
        <time>2019-01-24T13:02:44Z</time>
      </trkpt>
      <trkpt lat="43.44929" lon="6.60392">
        <ele>513.59997558594</ele>
        <time>2019-01-24T13:04:15Z</time>
      </trkpt>
      <trkpt lat="43.4493" lon="6.60391">
        <ele>514</ele>
        <time>2019-01-24T13:05:49Z</time>
      </trkpt>
      <trkpt lat="43.44929" lon="6.60392">
        <ele>513.79998779297</ele>
        <time>2019-01-24T13:06:56Z</time>
      </trkpt>
      <trkpt lat="43.44928" lon="6.60392">
        <ele>514.40002441406</ele>
        <time>2019-01-24T13:07:31Z</time>
      </trkpt>
      <trkpt lat="43.44925" lon="6.60391">
        <ele>513.40002441406</ele>
        <time>2019-01-24T13:08:16Z</time>
      </trkpt>
      <trkpt lat="43.44919" lon="6.60396">
        <ele>510.20001220703</ele>
        <time>2019-01-24T13:08:48Z</time>
      </trkpt>
      <trkpt lat="43.44912" lon="6.60391">
        <ele>507.39999389648</ele>
        <time>2019-01-24T13:09:12Z</time>
      </trkpt>
      <trkpt lat="43.44909" lon="6.60384">
        <ele>504.60000610352</ele>
        <time>2019-01-24T13:09:33Z</time>
      </trkpt>
      <trkpt lat="43.44905" lon="6.60381">
        <ele>501.60000610352</ele>
        <time>2019-01-24T13:09:58Z</time>
      </trkpt>
      <trkpt lat="43.449" lon="6.60379">
        <ele>498.60000610352</ele>
        <time>2019-01-24T13:10:22Z</time>
      </trkpt>
      <trkpt lat="43.44896" lon="6.60374">
        <ele>495.60000610352</ele>
        <time>2019-01-24T13:10:44Z</time>
      </trkpt>
      <trkpt lat="43.44891" lon="6.60377">
        <ele>492.60000610352</ele>
        <time>2019-01-24T13:11:03Z</time>
      </trkpt>
      <trkpt lat="43.44884" lon="6.60379">
        <ele>490.20001220703</ele>
        <time>2019-01-24T13:11:28Z</time>
      </trkpt>
      <trkpt lat="43.44876" lon="6.60375">
        <ele>488</ele>
        <time>2019-01-24T13:11:56Z</time>
      </trkpt>
      <trkpt lat="43.44874" lon="6.60373">
        <ele>486.39999389648</ele>
        <time>2019-01-24T13:12:22Z</time>
      </trkpt>
      <trkpt lat="43.44872" lon="6.60372">
        <ele>484.60000610352</ele>
        <time>2019-01-24T13:12:56Z</time>
      </trkpt>
      <trkpt lat="43.44869" lon="6.60371">
        <ele>481.60000610352</ele>
        <time>2019-01-24T13:13:19Z</time>
      </trkpt>
      <trkpt lat="43.44871" lon="6.60362">
        <ele>479.39999389648</ele>
        <time>2019-01-24T13:13:40Z</time>
      </trkpt>
      <trkpt lat="43.4487" lon="6.60353">
        <ele>476.39999389648</ele>
        <time>2019-01-24T13:14:04Z</time>
      </trkpt>
      <trkpt lat="43.44866" lon="6.60351">
        <ele>473.20001220703</ele>
        <time>2019-01-24T13:14:24Z</time>
      </trkpt>
      <trkpt lat="43.44862" lon="6.60354">
        <ele>470</ele>
        <time>2019-01-24T13:14:49Z</time>
      </trkpt>
      <trkpt lat="43.44861" lon="6.60346">
        <ele>467</ele>
        <time>2019-01-24T13:15:16Z</time>
      </trkpt>
      <trkpt lat="43.44857" lon="6.60343">
        <ele>463.79998779297</ele>
        <time>2019-01-24T13:15:37Z</time>
      </trkpt>
      <trkpt lat="43.44856" lon="6.60334">
        <ele>460.79998779297</ele>
        <time>2019-01-24T13:16:00Z</time>
      </trkpt>
      <trkpt lat="43.44855" lon="6.60335">
        <ele>458.20001220703</ele>
        <time>2019-01-24T13:16:17Z</time>
      </trkpt>
      <trkpt lat="43.44858" lon="6.60331">
        <ele>456.20001220703</ele>
        <time>2019-01-24T13:16:39Z</time>
      </trkpt>
      <trkpt lat="43.44856" lon="6.60329">
        <ele>453.20001220703</ele>
        <time>2019-01-24T13:17:04Z</time>
      </trkpt>
      <trkpt lat="43.44855" lon="6.60322">
        <ele>450.20001220703</ele>
        <time>2019-01-24T13:17:28Z</time>
      </trkpt>
      <trkpt lat="43.44854" lon="6.60317">
        <ele>447.20001220703</ele>
        <time>2019-01-24T13:17:52Z</time>
      </trkpt>
      <trkpt lat="43.44848" lon="6.6032">
        <ele>444.79998779297</ele>
        <time>2019-01-24T13:18:14Z</time>
      </trkpt>
      <trkpt lat="43.44843" lon="6.60313">
        <ele>441.79998779297</ele>
        <time>2019-01-24T13:18:38Z</time>
      </trkpt>
      <trkpt lat="43.44839" lon="6.60309">
        <ele>438.79998779297</ele>
        <time>2019-01-24T13:18:56Z</time>
      </trkpt>
      <trkpt lat="43.44836" lon="6.60302">
        <ele>435.60000610352</ele>
        <time>2019-01-24T13:19:23Z</time>
      </trkpt>
      <trkpt lat="43.44838" lon="6.60298">
        <ele>432.60000610352</ele>
        <time>2019-01-24T13:19:49Z</time>
      </trkpt>
      <trkpt lat="43.44838" lon="6.6029">
        <ele>429.39999389648</ele>
        <time>2019-01-24T13:20:18Z</time>
      </trkpt>
      <trkpt lat="43.44836" lon="6.60289">
        <ele>426.60000610352</ele>
        <time>2019-01-24T13:20:40Z</time>
      </trkpt>
      <trkpt lat="43.44837" lon="6.60283">
        <ele>423.79998779297</ele>
        <time>2019-01-24T13:21:00Z</time>
      </trkpt>
      <trkpt lat="43.44837" lon="6.60277">
        <ele>420.79998779297</ele>
        <time>2019-01-24T13:21:21Z</time>
      </trkpt>
      <trkpt lat="43.44841" lon="6.60267">
        <ele>418</ele>
        <time>2019-01-24T13:21:45Z</time>
      </trkpt>
      <trkpt lat="43.44845" lon="6.6026">
        <ele>415</ele>
        <time>2019-01-24T13:22:04Z</time>
      </trkpt>
      <trkpt lat="43.44849" lon="6.60255">
        <ele>412.60000610352</ele>
        <time>2019-01-24T13:22:22Z</time>
      </trkpt>
      <trkpt lat="43.44849" lon="6.60249">
        <ele>410.20001220703</ele>
        <time>2019-01-24T13:22:39Z</time>
      </trkpt>
      <trkpt lat="43.44849" lon="6.60243">
        <ele>408.60000610352</ele>
        <time>2019-01-24T13:22:53Z</time>
      </trkpt>
      <trkpt lat="43.44851" lon="6.60238">
        <ele>406.39999389648</ele>
        <time>2019-01-24T13:23:09Z</time>
      </trkpt>
      <trkpt lat="43.44853" lon="6.60235">
        <ele>404.79998779297</ele>
        <time>2019-01-24T13:23:28Z</time>
      </trkpt>
      <trkpt lat="43.44852" lon="6.60232">
        <ele>401.79998779297</ele>
        <time>2019-01-24T13:23:56Z</time>
      </trkpt>
      <trkpt lat="43.44848" lon="6.60226">
        <ele>398.79998779297</ele>
        <time>2019-01-24T13:24:17Z</time>
      </trkpt>
      <trkpt lat="43.44844" lon="6.60218">
        <ele>397.60000610352</ele>
        <time>2019-01-24T13:24:54Z</time>
      </trkpt>
      <trkpt lat="43.44846" lon="6.60212">
        <ele>394.39999389648</ele>
        <time>2019-01-24T13:25:11Z</time>
      </trkpt>
      <trkpt lat="43.44844" lon="6.60208">
        <ele>391.79998779297</ele>
        <time>2019-01-24T13:25:25Z</time>
      </trkpt>
      <trkpt lat="43.44842" lon="6.60205">
        <ele>391</ele>
        <time>2019-01-24T13:25:56Z</time>
      </trkpt>
      <trkpt lat="43.4484" lon="6.60203">
        <ele>388.79998779297</ele>
        <time>2019-01-24T13:26:15Z</time>
      </trkpt>
      <trkpt lat="43.44841" lon="6.60193">
        <ele>386.20001220703</ele>
        <time>2019-01-24T13:26:31Z</time>
      </trkpt>
      <trkpt lat="43.44836" lon="6.60188">
        <ele>383.20001220703</ele>
        <time>2019-01-24T13:26:47Z</time>
      </trkpt>
      <trkpt lat="43.44832" lon="6.60182">
        <ele>381.39999389648</ele>
        <time>2019-01-24T13:27:11Z</time>
      </trkpt>
      <trkpt lat="43.4483" lon="6.60172">
        <ele>378.39999389648</ele>
        <time>2019-01-24T13:27:34Z</time>
      </trkpt>
      <trkpt lat="43.44827" lon="6.60162">
        <ele>375.20001220703</ele>
        <time>2019-01-24T13:27:55Z</time>
      </trkpt>
      <trkpt lat="43.44821" lon="6.60156">
        <ele>372.20001220703</ele>
        <time>2019-01-24T13:28:21Z</time>
      </trkpt>
      <trkpt lat="43.4482" lon="6.60147">
        <ele>369.39999389648</ele>
        <time>2019-01-24T13:28:44Z</time>
      </trkpt>
      <trkpt lat="43.44819" lon="6.60137">
        <ele>366.39999389648</ele>
        <time>2019-01-24T13:29:04Z</time>
      </trkpt>
      <trkpt lat="43.44816" lon="6.60127">
        <ele>363.79998779297</ele>
        <time>2019-01-24T13:29:24Z</time>
      </trkpt>
      <trkpt lat="43.44809" lon="6.60123">
        <ele>361.60000610352</ele>
        <time>2019-01-24T13:29:43Z</time>
      </trkpt>
      <trkpt lat="43.44809" lon="6.60113">
        <ele>359.60000610352</ele>
        <time>2019-01-24T13:30:04Z</time>
      </trkpt>
      <trkpt lat="43.44804" lon="6.60106">
        <ele>357.39999389648</ele>
        <time>2019-01-24T13:30:26Z</time>
      </trkpt>
      <trkpt lat="43.44797" lon="6.60101">
        <ele>354.79998779297</ele>
        <time>2019-01-24T13:30:44Z</time>
      </trkpt>
      <trkpt lat="43.44785" lon="6.60097">
        <ele>351.60000610352</ele>
        <time>2019-01-24T13:31:08Z</time>
      </trkpt>
      <trkpt lat="43.44775" lon="6.60092">
        <ele>349.20001220703</ele>
        <time>2019-01-24T13:31:26Z</time>
      </trkpt>
      <trkpt lat="43.44762" lon="6.60085">
        <ele>346.39999389648</ele>
        <time>2019-01-24T13:31:45Z</time>
      </trkpt>
      <trkpt lat="43.44749" lon="6.60079">
        <ele>344</ele>
        <time>2019-01-24T13:32:06Z</time>
      </trkpt>
      <trkpt lat="43.44739" lon="6.60072">
        <ele>341.39999389648</ele>
        <time>2019-01-24T13:32:24Z</time>
      </trkpt>
      <trkpt lat="43.44727" lon="6.60071">
        <ele>338.60000610352</ele>
        <time>2019-01-24T13:32:41Z</time>
      </trkpt>
      <trkpt lat="43.44717" lon="6.60074">
        <ele>336.60000610352</ele>
        <time>2019-01-24T13:32:57Z</time>
      </trkpt>
      <trkpt lat="43.44706" lon="6.60079">
        <ele>334.60000610352</ele>
        <time>2019-01-24T13:33:17Z</time>
      </trkpt>
      <trkpt lat="43.44688" lon="6.60095">
        <ele>335.20001220703</ele>
        <time>2019-01-24T13:33:40Z</time>
      </trkpt>
      <trkpt lat="43.44683" lon="6.60112">
        <ele>334</ele>
        <time>2019-01-24T13:33:58Z</time>
      </trkpt>
      <trkpt lat="43.44671" lon="6.60118">
        <ele>333.79998779297</ele>
        <time>2019-01-24T13:34:23Z</time>
      </trkpt>
      <trkpt lat="43.44658" lon="6.60109">
        <ele>333.39999389648</ele>
        <time>2019-01-24T13:34:40Z</time>
      </trkpt>
      <trkpt lat="43.44643" lon="6.60094">
        <ele>330.60000610352</ele>
        <time>2019-01-24T13:34:59Z</time>
      </trkpt>
      <trkpt lat="43.44636" lon="6.60082">
        <ele>329.39999389648</ele>
        <time>2019-01-24T13:35:07Z</time>
      </trkpt>
      <trkpt lat="43.44631" lon="6.60063">
        <ele>327.60000610352</ele>
        <time>2019-01-24T13:35:25Z</time>
      </trkpt>
      <trkpt lat="43.44633" lon="6.60056">
        <ele>327.20001220703</ele>
        <time>2019-01-24T13:35:30Z</time>
      </trkpt>
      <trkpt lat="43.44633" lon="6.60053">
        <ele>326.60000610352</ele>
        <time>2019-01-24T13:35:32Z</time>
      </trkpt>
      <trkpt lat="43.44636" lon="6.6004">
        <ele>325.39999389648</ele>
        <time>2019-01-24T13:35:42Z</time>
      </trkpt>
      <trkpt lat="43.44639" lon="6.60019">
        <ele>324</ele>
        <time>2019-01-24T13:35:57Z</time>
      </trkpt>
      <trkpt lat="43.44639" lon="6.6001">
        <ele>323.79998779297</ele>
        <time>2019-01-24T13:36:02Z</time>
      </trkpt>
      <trkpt lat="43.44639" lon="6.60002">
        <ele>323.60000610352</ele>
        <time>2019-01-24T13:36:06Z</time>
      </trkpt>
      <trkpt lat="43.44639" lon="6.59989">
        <ele>322.60000610352</ele>
        <time>2019-01-24T13:36:19Z</time>
      </trkpt>
      <trkpt lat="43.44637" lon="6.59977">
        <ele>322.20001220703</ele>
        <time>2019-01-24T13:36:37Z</time>
      </trkpt>
      <trkpt lat="43.44645" lon="6.59952">
        <ele>321.20001220703</ele>
        <time>2019-01-24T13:36:56Z</time>
      </trkpt>
      <trkpt lat="43.44654" lon="6.59926">
        <ele>319.79998779297</ele>
        <time>2019-01-24T13:37:17Z</time>
      </trkpt>
      <trkpt lat="43.44672" lon="6.59911">
        <ele>318.20001220703</ele>
        <time>2019-01-24T13:37:38Z</time>
      </trkpt>
      <trkpt lat="43.44678" lon="6.59909">
        <ele>318</ele>
        <time>2019-01-24T13:37:43Z</time>
      </trkpt>
      <trkpt lat="43.44698" lon="6.59894">
        <ele>317.79998779297</ele>
        <time>2019-01-24T13:37:59Z</time>
      </trkpt>
      <trkpt lat="43.44701" lon="6.59873">
        <ele>318</ele>
        <time>2019-01-24T13:38:17Z</time>
      </trkpt>
      <trkpt lat="43.44697" lon="6.59855">
        <ele>315.60000610352</ele>
        <time>2019-01-24T13:38:33Z</time>
      </trkpt>
      <trkpt lat="43.44698" lon="6.59843">
        <ele>314.79998779297</ele>
        <time>2019-01-24T13:38:40Z</time>
      </trkpt>
      <trkpt lat="43.44705" lon="6.59833">
        <ele>314.39999389648</ele>
        <time>2019-01-24T13:38:48Z</time>
      </trkpt>
      <trkpt lat="43.44718" lon="6.59821">
        <ele>313.20001220703</ele>
        <time>2019-01-24T13:39:04Z</time>
      </trkpt>
      <trkpt lat="43.44727" lon="6.59815">
        <ele>313</ele>
        <time>2019-01-24T13:39:19Z</time>
      </trkpt>
      <trkpt lat="43.44733" lon="6.59805">
        <ele>313.20001220703</ele>
        <time>2019-01-24T13:39:27Z</time>
      </trkpt>
      <trkpt lat="43.44733" lon="6.59796">
        <ele>313.20001220703</ele>
        <time>2019-01-24T13:39:32Z</time>
      </trkpt>
      <trkpt lat="43.44734" lon="6.5978">
        <ele>313.39999389648</ele>
        <time>2019-01-24T13:39:44Z</time>
      </trkpt>
      <trkpt lat="43.44732" lon="6.5976">
        <ele>313.79998779297</ele>
        <time>2019-01-24T13:39:59Z</time>
      </trkpt>
      <trkpt lat="43.44734" lon="6.5976">
        <ele>314.60000610352</ele>
        <time>2019-01-24T13:40:15Z</time>
      </trkpt>
      <trkpt lat="43.44734" lon="6.59757">
        <ele>314.60000610352</ele>
        <time>2019-01-24T13:40:17Z</time>
      </trkpt>
      <trkpt lat="43.44736" lon="6.5974">
        <ele>314.79998779297</ele>
        <time>2019-01-24T13:40:30Z</time>
      </trkpt>
      <trkpt lat="43.44739" lon="6.59731">
        <ele>315.39999389648</ele>
        <time>2019-01-24T13:40:36Z</time>
      </trkpt>
      <trkpt lat="43.4474" lon="6.59724">
        <ele>315.60000610352</ele>
        <time>2019-01-24T13:40:41Z</time>
      </trkpt>
      <trkpt lat="43.44739" lon="6.59719">
        <ele>315.60000610352</ele>
        <time>2019-01-24T13:40:44Z</time>
      </trkpt>
      <trkpt lat="43.44734" lon="6.59706">
        <ele>315.60000610352</ele>
        <time>2019-01-24T13:40:52Z</time>
      </trkpt>
      <trkpt lat="43.44732" lon="6.59695">
        <ele>316</ele>
        <time>2019-01-24T13:41:02Z</time>
      </trkpt>
      <trkpt lat="43.44727" lon="6.59674">
        <ele>315.39999389648</ele>
        <time>2019-01-24T13:41:16Z</time>
      </trkpt>
      <trkpt lat="43.44722" lon="6.59653">
        <ele>314.39999389648</ele>
        <time>2019-01-24T13:41:28Z</time>
      </trkpt>
      <trkpt lat="43.44719" lon="6.5965">
        <ele>314.20001220703</ele>
        <time>2019-01-24T13:41:30Z</time>
      </trkpt>
      <trkpt lat="43.44709" lon="6.59653">
        <ele>314.20001220703</ele>
        <time>2019-01-24T13:41:39Z</time>
      </trkpt>
      <trkpt lat="43.44689" lon="6.59652">
        <ele>315.79998779297</ele>
        <time>2019-01-24T13:42:02Z</time>
      </trkpt>
      <trkpt lat="43.44683" lon="6.5963">
        <ele>317.60000610352</ele>
        <time>2019-01-24T13:42:20Z</time>
      </trkpt>
      <trkpt lat="43.44681" lon="6.59611">
        <ele>319</ele>
        <time>2019-01-24T13:42:34Z</time>
      </trkpt>
      <trkpt lat="43.4468" lon="6.59603">
        <ele>321.79998779297</ele>
        <time>2019-01-24T13:42:53Z</time>
      </trkpt>
      <trkpt lat="43.44681" lon="6.59593">
        <ele>322.39999389648</ele>
        <time>2019-01-24T13:43:08Z</time>
      </trkpt>
      <trkpt lat="43.44684" lon="6.59575">
        <ele>322.60000610352</ele>
        <time>2019-01-24T13:43:37Z</time>
      </trkpt>
      <trkpt lat="43.44692" lon="6.59562">
        <ele>322.79998779297</ele>
        <time>2019-01-24T13:43:51Z</time>
      </trkpt>
      <trkpt lat="43.44691" lon="6.59558">
        <ele>323.39999389648</ele>
        <time>2019-01-24T13:43:54Z</time>
      </trkpt>
      <trkpt lat="43.44693" lon="6.59552">
        <ele>323.60000610352</ele>
        <time>2019-01-24T13:43:58Z</time>
      </trkpt>
      <trkpt lat="43.44695" lon="6.59548">
        <ele>323.60000610352</ele>
        <time>2019-01-24T13:44:01Z</time>
      </trkpt>
      <trkpt lat="43.44703" lon="6.59531">
        <ele>323</ele>
        <time>2019-01-24T13:44:14Z</time>
      </trkpt>
      <trkpt lat="43.44713" lon="6.59517">
        <ele>323.39999389648</ele>
        <time>2019-01-24T13:44:27Z</time>
      </trkpt>
      <trkpt lat="43.44726" lon="6.59495">
        <ele>324.39999389648</ele>
        <time>2019-01-24T13:44:48Z</time>
      </trkpt>
      <trkpt lat="43.44735" lon="6.5948">
        <ele>324.79998779297</ele>
        <time>2019-01-24T13:45:03Z</time>
      </trkpt>
      <trkpt lat="43.44738" lon="6.59477">
        <ele>325</ele>
        <time>2019-01-24T13:45:06Z</time>
      </trkpt>
      <trkpt lat="43.44753" lon="6.5947">
        <ele>326.60000610352</ele>
        <time>2019-01-24T13:45:20Z</time>
      </trkpt>
      <trkpt lat="43.44761" lon="6.59471">
        <ele>327</ele>
        <time>2019-01-24T13:45:27Z</time>
      </trkpt>
      <trkpt lat="43.4477" lon="6.59467">
        <ele>327.60000610352</ele>
        <time>2019-01-24T13:45:41Z</time>
      </trkpt>
      <trkpt lat="43.44779" lon="6.59457">
        <ele>328.60000610352</ele>
        <time>2019-01-24T13:45:56Z</time>
      </trkpt>
      <trkpt lat="43.4479" lon="6.59444">
        <ele>329.60000610352</ele>
        <time>2019-01-24T13:46:11Z</time>
      </trkpt>
      <trkpt lat="43.44795" lon="6.59438">
        <ele>330.39999389648</ele>
        <time>2019-01-24T13:46:21Z</time>
      </trkpt>
      <trkpt lat="43.44798" lon="6.59435">
        <ele>330.79998779297</ele>
        <time>2019-01-24T13:46:25Z</time>
      </trkpt>
      <trkpt lat="43.44806" lon="6.59445">
        <ele>332</ele>
        <time>2019-01-24T13:46:39Z</time>
      </trkpt>
      <trkpt lat="43.44814" lon="6.59461">
        <ele>333.39999389648</ele>
        <time>2019-01-24T13:46:57Z</time>
      </trkpt>
      <trkpt lat="43.44821" lon="6.5946">
        <ele>335</ele>
        <time>2019-01-24T13:47:10Z</time>
      </trkpt>
      <trkpt lat="43.44819" lon="6.5946">
        <ele>335.39999389648</ele>
        <time>2019-01-24T13:47:27Z</time>
      </trkpt>
      <trkpt lat="43.44819" lon="6.59461">
        <ele>335</ele>
        <time>2019-01-24T13:47:48Z</time>
      </trkpt>
      <trkpt lat="43.44821" lon="6.59457">
        <ele>335</ele>
        <time>2019-01-24T13:49:06Z</time>
      </trkpt>
      <trkpt lat="43.44829" lon="6.59463">
        <ele>335.20001220703</ele>
        <time>2019-01-24T13:49:20Z</time>
      </trkpt>
      <trkpt lat="43.44834" lon="6.59465">
        <ele>337</ele>
        <time>2019-01-24T13:49:50Z</time>
      </trkpt>
      <trkpt lat="43.44838" lon="6.5946">
        <ele>337.20001220703</ele>
        <time>2019-01-24T13:50:17Z</time>
      </trkpt>
      <trkpt lat="43.44841" lon="6.59454">
        <ele>336.60000610352</ele>
        <time>2019-01-24T13:50:34Z</time>
      </trkpt>
      <trkpt lat="43.44843" lon="6.5945">
        <ele>336.60000610352</ele>
        <time>2019-01-24T13:50:37Z</time>
      </trkpt>
      <trkpt lat="43.44843" lon="6.59444">
        <ele>336.39999389648</ele>
        <time>2019-01-24T13:50:41Z</time>
      </trkpt>
      <trkpt lat="43.44838" lon="6.59429">
        <ele>335.79998779297</ele>
        <time>2019-01-24T13:50:53Z</time>
      </trkpt>
      <trkpt lat="43.44832" lon="6.59425">
        <ele>335</ele>
        <time>2019-01-24T13:51:00Z</time>
      </trkpt>
      <trkpt lat="43.44829" lon="6.59418">
        <ele>334</ele>
        <time>2019-01-24T13:51:06Z</time>
      </trkpt>
      <trkpt lat="43.44827" lon="6.59407">
        <ele>332.39999389648</ele>
        <time>2019-01-24T13:51:16Z</time>
      </trkpt>
      <trkpt lat="43.44829" lon="6.59404">
        <ele>332.20001220703</ele>
        <time>2019-01-24T13:51:18Z</time>
      </trkpt>
      <trkpt lat="43.44844" lon="6.59388">
        <ele>331.79998779297</ele>
        <time>2019-01-24T13:51:36Z</time>
      </trkpt>
      <trkpt lat="43.44861" lon="6.59381">
        <ele>331.79998779297</ele>
        <time>2019-01-24T13:51:53Z</time>
      </trkpt>
      <trkpt lat="43.44862" lon="6.5938">
        <ele>331.79998779297</ele>
        <time>2019-01-24T13:51:54Z</time>
      </trkpt>
      <trkpt lat="43.44866" lon="6.59375">
        <ele>331.79998779297</ele>
        <time>2019-01-24T13:51:58Z</time>
      </trkpt>
      <trkpt lat="43.44872" lon="6.5937">
        <ele>331.20001220703</ele>
        <time>2019-01-24T13:52:06Z</time>
      </trkpt>
      <trkpt lat="43.44876" lon="6.59363">
        <ele>331</ele>
        <time>2019-01-24T13:52:12Z</time>
      </trkpt>
      <trkpt lat="43.4489" lon="6.59346">
        <ele>329.39999389648</ele>
        <time>2019-01-24T13:52:30Z</time>
      </trkpt>
      <trkpt lat="43.44899" lon="6.59336">
        <ele>329.20001220703</ele>
        <time>2019-01-24T13:52:46Z</time>
      </trkpt>
      <trkpt lat="43.44907" lon="6.59323">
        <ele>329.60000610352</ele>
        <time>2019-01-24T13:53:00Z</time>
      </trkpt>
      <trkpt lat="43.44914" lon="6.59308">
        <ele>330.39999389648</ele>
        <time>2019-01-24T13:53:14Z</time>
      </trkpt>
      <trkpt lat="43.44917" lon="6.59304">
        <ele>331</ele>
        <time>2019-01-24T13:53:28Z</time>
      </trkpt>
      <trkpt lat="43.44918" lon="6.59287">
        <ele>331.60000610352</ele>
        <time>2019-01-24T13:53:44Z</time>
      </trkpt>
      <trkpt lat="43.44918" lon="6.59269">
        <ele>332.20001220703</ele>
        <time>2019-01-24T13:54:00Z</time>
      </trkpt>
      <trkpt lat="43.44924" lon="6.59262">
        <ele>333.60000610352</ele>
        <time>2019-01-24T13:54:13Z</time>
      </trkpt>
      <trkpt lat="43.44929" lon="6.5925">
        <ele>334.20001220703</ele>
        <time>2019-01-24T13:54:27Z</time>
      </trkpt>
      <trkpt lat="43.44937" lon="6.59247">
        <ele>334.60000610352</ele>
        <time>2019-01-24T13:54:41Z</time>
      </trkpt>
      <trkpt lat="43.44939" lon="6.59245">
        <ele>335.79998779297</ele>
        <time>2019-01-24T13:55:06Z</time>
      </trkpt>
      <trkpt lat="43.44943" lon="6.59244">
        <ele>336</ele>
        <time>2019-01-24T13:55:20Z</time>
      </trkpt>
      <trkpt lat="43.44945" lon="6.59231">
        <ele>336.39999389648</ele>
        <time>2019-01-24T13:55:36Z</time>
      </trkpt>
      <trkpt lat="43.44944" lon="6.5922">
        <ele>336.79998779297</ele>
        <time>2019-01-24T13:55:51Z</time>
      </trkpt>
      <trkpt lat="43.44942" lon="6.59217">
        <ele>335.60000610352</ele>
        <time>2019-01-24T13:56:12Z</time>
      </trkpt>
      <trkpt lat="43.44938" lon="6.59216">
        <ele>334.39999389648</ele>
        <time>2019-01-24T13:56:28Z</time>
      </trkpt>
      <trkpt lat="43.44934" lon="6.59212">
        <ele>334.39999389648</ele>
        <time>2019-01-24T13:56:46Z</time>
      </trkpt>
      <trkpt lat="43.44934" lon="6.59213">
        <ele>333.39999389648</ele>
        <time>2019-01-24T13:57:00Z</time>
      </trkpt>
      <trkpt lat="43.44941" lon="6.59225">
        <ele>334</ele>
        <time>2019-01-24T13:57:12Z</time>
      </trkpt>
      <trkpt lat="43.44951" lon="6.59234">
        <ele>336.39999389648</ele>
        <time>2019-01-24T13:57:27Z</time>
      </trkpt>
      <trkpt lat="43.44954" lon="6.59235">
        <ele>337.20001220703</ele>
        <time>2019-01-24T13:57:32Z</time>
      </trkpt>
      <trkpt lat="43.44958" lon="6.59228">
        <ele>339</ele>
        <time>2019-01-24T13:57:45Z</time>
      </trkpt>
      <trkpt lat="43.44951" lon="6.59219">
        <ele>339.60000610352</ele>
        <time>2019-01-24T13:57:57Z</time>
      </trkpt>
      <trkpt lat="43.44946" lon="6.59209">
        <ele>340</ele>
        <time>2019-01-24T13:58:10Z</time>
      </trkpt>
      <trkpt lat="43.44941" lon="6.59202">
        <ele>339.79998779297</ele>
        <time>2019-01-24T13:58:28Z</time>
      </trkpt>
      <trkpt lat="43.44942" lon="6.59201">
        <ele>339.39999389648</ele>
        <time>2019-01-24T13:59:04Z</time>
      </trkpt>
      <trkpt lat="43.44943" lon="6.59207">
        <ele>339.39999389648</ele>
        <time>2019-01-24T14:00:03Z</time>
      </trkpt>
      <trkpt lat="43.44946" lon="6.59209">
        <ele>340</ele>
        <time>2019-01-24T14:00:32Z</time>
      </trkpt>
      <trkpt lat="43.44953" lon="6.59216">
        <ele>339.20001220703</ele>
        <time>2019-01-24T14:00:42Z</time>
      </trkpt>
      <trkpt lat="43.44959" lon="6.59228">
        <ele>339.20001220703</ele>
        <time>2019-01-24T14:00:58Z</time>
      </trkpt>
      <trkpt lat="43.44965" lon="6.59226">
        <ele>340.20001220703</ele>
        <time>2019-01-24T14:01:13Z</time>
      </trkpt>
      <trkpt lat="43.44966" lon="6.59224">
        <ele>340.20001220703</ele>
        <time>2019-01-24T14:01:34Z</time>
      </trkpt>
      <trkpt lat="43.44966" lon="6.59226">
        <ele>340.60000610352</ele>
        <time>2019-01-24T14:02:32Z</time>
      </trkpt>
      <trkpt lat="43.4496" lon="6.59235">
        <ele>340.39999389648</ele>
        <time>2019-01-24T14:02:44Z</time>
      </trkpt>
      <trkpt lat="43.44956" lon="6.59248">
        <ele>339.39999389648</ele>
        <time>2019-01-24T14:02:55Z</time>
      </trkpt>
      <trkpt lat="43.44951" lon="6.5927">
        <ele>338.20001220703</ele>
        <time>2019-01-24T14:03:10Z</time>
      </trkpt>
      <trkpt lat="43.44953" lon="6.59277">
        <ele>338</ele>
        <time>2019-01-24T14:03:15Z</time>
      </trkpt>
      <trkpt lat="43.44949" lon="6.59291">
        <ele>336.60000610352</ele>
        <time>2019-01-24T14:03:28Z</time>
      </trkpt>
      <trkpt lat="43.44952" lon="6.59312">
        <ele>335.20001220703</ele>
        <time>2019-01-24T14:03:44Z</time>
      </trkpt>
      <trkpt lat="43.44962" lon="6.59328">
        <ele>336.60000610352</ele>
        <time>2019-01-24T14:04:02Z</time>
      </trkpt>
      <trkpt lat="43.44971" lon="6.59326">
        <ele>338.20001220703</ele>
        <time>2019-01-24T14:04:17Z</time>
      </trkpt>
      <trkpt lat="43.4498" lon="6.59321">
        <ele>340</ele>
        <time>2019-01-24T14:04:32Z</time>
      </trkpt>
      <trkpt lat="43.44988" lon="6.59323">
        <ele>342</ele>
        <time>2019-01-24T14:04:48Z</time>
      </trkpt>
      <trkpt lat="43.44988" lon="6.59326">
        <ele>342.39999389648</ele>
        <time>2019-01-24T14:04:50Z</time>
      </trkpt>
      <trkpt lat="43.44994" lon="6.59341">
        <ele>343.79998779297</ele>
        <time>2019-01-24T14:05:10Z</time>
      </trkpt>
      <trkpt lat="43.45001" lon="6.59354">
        <ele>346</ele>
        <time>2019-01-24T14:05:30Z</time>
      </trkpt>
      <trkpt lat="43.45011" lon="6.59361">
        <ele>348.39999389648</ele>
        <time>2019-01-24T14:05:52Z</time>
      </trkpt>
      <trkpt lat="43.45022" lon="6.59358">
        <ele>351.60000610352</ele>
        <time>2019-01-24T14:06:13Z</time>
      </trkpt>
      <trkpt lat="43.45031" lon="6.5936">
        <ele>354.60000610352</ele>
        <time>2019-01-24T14:06:35Z</time>
      </trkpt>
      <trkpt lat="43.45042" lon="6.59358">
        <ele>355.79998779297</ele>
        <time>2019-01-24T14:07:06Z</time>
      </trkpt>
      <trkpt lat="43.45053" lon="6.59356">
        <ele>358.79998779297</ele>
        <time>2019-01-24T14:07:21Z</time>
      </trkpt>
      <trkpt lat="43.45064" lon="6.59358">
        <ele>360.20001220703</ele>
        <time>2019-01-24T14:07:32Z</time>
      </trkpt>
      <trkpt lat="43.45076" lon="6.5936">
        <ele>361.39999389648</ele>
        <time>2019-01-24T14:07:48Z</time>
      </trkpt>
      <trkpt lat="43.4509" lon="6.5936">
        <ele>362.20001220703</ele>
        <time>2019-01-24T14:08:05Z</time>
      </trkpt>
      <trkpt lat="43.45101" lon="6.59362">
        <ele>361.39999389648</ele>
        <time>2019-01-24T14:08:20Z</time>
      </trkpt>
      <trkpt lat="43.45114" lon="6.5937">
        <ele>360.60000610352</ele>
        <time>2019-01-24T14:08:33Z</time>
      </trkpt>
      <trkpt lat="43.45125" lon="6.5938">
        <ele>360.60000610352</ele>
        <time>2019-01-24T14:08:46Z</time>
      </trkpt>
      <trkpt lat="43.45136" lon="6.59374">
        <ele>361.60000610352</ele>
        <time>2019-01-24T14:09:00Z</time>
      </trkpt>
      <trkpt lat="43.45142" lon="6.59365">
        <ele>360</ele>
        <time>2019-01-24T14:09:15Z</time>
      </trkpt>
      <trkpt lat="43.45146" lon="6.59355">
        <ele>357.79998779297</ele>
        <time>2019-01-24T14:09:34Z</time>
      </trkpt>
      <trkpt lat="43.45146" lon="6.59351">
        <ele>356.60000610352</ele>
        <time>2019-01-24T14:09:49Z</time>
      </trkpt>
      <trkpt lat="43.45144" lon="6.5935">
        <ele>355.79998779297</ele>
        <time>2019-01-24T14:10:07Z</time>
      </trkpt>
      <trkpt lat="43.45142" lon="6.59349">
        <ele>355.39999389648</ele>
        <time>2019-01-24T14:10:25Z</time>
      </trkpt>
      <trkpt lat="43.45142" lon="6.59352">
        <ele>355.20001220703</ele>
        <time>2019-01-24T14:10:47Z</time>
      </trkpt>
      <trkpt lat="43.45141" lon="6.59351">
        <ele>355.20001220703</ele>
        <time>2019-01-24T14:11:55Z</time>
      </trkpt>
      <trkpt lat="43.45144" lon="6.59354">
        <ele>356.39999389648</ele>
        <time>2019-01-24T14:12:27Z</time>
      </trkpt>
      <trkpt lat="43.45143" lon="6.59357">
        <ele>356.39999389648</ele>
        <time>2019-01-24T14:13:15Z</time>
      </trkpt>
      <trkpt lat="43.45146" lon="6.59359">
        <ele>356.79998779297</ele>
        <time>2019-01-24T14:13:33Z</time>
      </trkpt>
      <trkpt lat="43.45154" lon="6.59365">
        <ele>356.20001220703</ele>
        <time>2019-01-24T14:13:51Z</time>
      </trkpt>
      <trkpt lat="43.45162" lon="6.59372">
        <ele>356.79998779297</ele>
        <time>2019-01-24T14:14:10Z</time>
      </trkpt>
      <trkpt lat="43.45172" lon="6.59377">
        <ele>357</ele>
        <time>2019-01-24T14:14:45Z</time>
      </trkpt>
      <trkpt lat="43.4519" lon="6.59381">
        <ele>357.79998779297</ele>
        <time>2019-01-24T14:15:05Z</time>
      </trkpt>
      <trkpt lat="43.45208" lon="6.59392">
        <ele>359.79998779297</ele>
        <time>2019-01-24T14:15:27Z</time>
      </trkpt>
      <trkpt lat="43.45232" lon="6.59396">
        <ele>359.20001220703</ele>
        <time>2019-01-24T14:15:53Z</time>
      </trkpt>
      <trkpt lat="43.45235" lon="6.59397">
        <ele>359.20001220703</ele>
        <time>2019-01-24T14:15:55Z</time>
      </trkpt>
      <trkpt lat="43.45256" lon="6.59398">
        <ele>358.79998779297</ele>
        <time>2019-01-24T14:16:14Z</time>
      </trkpt>
      <trkpt lat="43.45257" lon="6.59399">
        <ele>358.79998779297</ele>
        <time>2019-01-24T14:16:16Z</time>
      </trkpt>
      <trkpt lat="43.45262" lon="6.59401">
        <ele>358.79998779297</ele>
        <time>2019-01-24T14:16:22Z</time>
      </trkpt>
      <trkpt lat="43.45297" lon="6.59416">
        <ele>357.79998779297</ele>
        <time>2019-01-24T14:16:54Z</time>
      </trkpt>
      <trkpt lat="43.45316" lon="6.5942">
        <ele>356.79998779297</ele>
        <time>2019-01-24T14:17:19Z</time>
      </trkpt>
      <trkpt lat="43.45339" lon="6.59419">
        <ele>356.39999389648</ele>
        <time>2019-01-24T14:17:49Z</time>
      </trkpt>
      <trkpt lat="43.45358" lon="6.59421">
        <ele>356.60000610352</ele>
        <time>2019-01-24T14:18:13Z</time>
      </trkpt>
      <trkpt lat="43.45356" lon="6.59409">
        <ele>357.79998779297</ele>
        <time>2019-01-24T14:18:39Z</time>
      </trkpt>
      <trkpt lat="43.4536" lon="6.59405">
        <ele>360.20001220703</ele>
        <time>2019-01-24T14:19:00Z</time>
      </trkpt>
      <trkpt lat="43.45366" lon="6.59406">
        <ele>361</ele>
        <time>2019-01-24T14:19:23Z</time>
      </trkpt>
      <trkpt lat="43.45368" lon="6.59405">
        <ele>362.79998779297</ele>
        <time>2019-01-24T14:19:54Z</time>
      </trkpt>
      <trkpt lat="43.45372" lon="6.59407">
        <ele>362.79998779297</ele>
        <time>2019-01-24T14:20:16Z</time>
      </trkpt>
      <trkpt lat="43.45372" lon="6.59409">
        <ele>362.79998779297</ele>
        <time>2019-01-24T14:20:17Z</time>
      </trkpt>
      <trkpt lat="43.4538" lon="6.59423">
        <ele>362.79998779297</ele>
        <time>2019-01-24T14:20:34Z</time>
      </trkpt>
      <trkpt lat="43.45382" lon="6.59428">
        <ele>362.60000610352</ele>
        <time>2019-01-24T14:20:40Z</time>
      </trkpt>
      <trkpt lat="43.45391" lon="6.59432">
        <ele>361.79998779297</ele>
        <time>2019-01-24T14:20:51Z</time>
      </trkpt>
      <trkpt lat="43.45399" lon="6.59433">
        <ele>362.39999389648</ele>
        <time>2019-01-24T14:21:07Z</time>
      </trkpt>
      <trkpt lat="43.45408" lon="6.59443">
        <ele>362.79998779297</ele>
        <time>2019-01-24T14:21:22Z</time>
      </trkpt>
      <trkpt lat="43.45412" lon="6.59446">
        <ele>361.39999389648</ele>
        <time>2019-01-24T14:21:47Z</time>
      </trkpt>
      <trkpt lat="43.45416" lon="6.59454">
        <ele>361</ele>
        <time>2019-01-24T14:22:03Z</time>
      </trkpt>
      <trkpt lat="43.45421" lon="6.59461">
        <ele>361.60000610352</ele>
        <time>2019-01-24T14:22:23Z</time>
      </trkpt>
      <trkpt lat="43.45427" lon="6.59465">
        <ele>360.20001220703</ele>
        <time>2019-01-24T14:22:47Z</time>
      </trkpt>
      <trkpt lat="43.45428" lon="6.59465">
        <ele>360.39999389648</ele>
        <time>2019-01-24T14:23:29Z</time>
      </trkpt>
      <trkpt lat="43.4543" lon="6.59471">
        <ele>359.79998779297</ele>
        <time>2019-01-24T14:23:49Z</time>
      </trkpt>
      <trkpt lat="43.45429" lon="6.59474">
        <ele>358.39999389648</ele>
        <time>2019-01-24T14:24:24Z</time>
      </trkpt>
      <trkpt lat="43.45433" lon="6.59478">
        <ele>357</ele>
        <time>2019-01-24T14:24:41Z</time>
      </trkpt>
      <trkpt lat="43.45426" lon="6.5947">
        <ele>357</ele>
        <time>2019-01-24T14:25:12Z</time>
      </trkpt>
      <trkpt lat="43.45426" lon="6.59463">
        <ele>359.39999389648</ele>
        <time>2019-01-24T14:25:31Z</time>
      </trkpt>
      <trkpt lat="43.45427" lon="6.59462">
        <ele>359.60000610352</ele>
        <time>2019-01-24T14:26:09Z</time>
      </trkpt>
      <trkpt lat="43.45428" lon="6.59464">
        <ele>359.60000610352</ele>
        <time>2019-01-24T14:27:43Z</time>
      </trkpt>
      <trkpt lat="43.45426" lon="6.59465">
        <ele>359.39999389648</ele>
        <time>2019-01-24T14:29:02Z</time>
      </trkpt>
      <trkpt lat="43.45428" lon="6.59468">
        <ele>359.20001220703</ele>
        <time>2019-01-24T14:30:01Z</time>
      </trkpt>
      <trkpt lat="43.45428" lon="6.59466">
        <ele>359.20001220703</ele>
        <time>2019-01-24T14:30:42Z</time>
      </trkpt>
      <trkpt lat="43.45428" lon="6.59465">
        <ele>359.20001220703</ele>
        <time>2019-01-24T14:31:38Z</time>
      </trkpt>
      <trkpt lat="43.45431" lon="6.59472">
        <ele>358.60000610352</ele>
        <time>2019-01-24T14:31:56Z</time>
      </trkpt>
      <trkpt lat="43.45432" lon="6.59482">
        <ele>356</ele>
        <time>2019-01-24T14:32:11Z</time>
      </trkpt>
      <trkpt lat="43.45432" lon="6.59486">
        <ele>354</ele>
        <time>2019-01-24T14:32:28Z</time>
      </trkpt>
      <trkpt lat="43.45431" lon="6.59491">
        <ele>353.20001220703</ele>
        <time>2019-01-24T14:32:44Z</time>
      </trkpt>
      <trkpt lat="43.45425" lon="6.59492">
        <ele>350.20001220703</ele>
        <time>2019-01-24T14:33:03Z</time>
      </trkpt>
      <trkpt lat="43.45419" lon="6.59494">
        <ele>347.79998779297</ele>
        <time>2019-01-24T14:33:17Z</time>
      </trkpt>
      <trkpt lat="43.45417" lon="6.59495">
        <ele>345.79998779297</ele>
        <time>2019-01-24T14:33:35Z</time>
      </trkpt>
      <trkpt lat="43.45413" lon="6.59495">
        <ele>343.60000610352</ele>
        <time>2019-01-24T14:33:52Z</time>
      </trkpt>
      <trkpt lat="43.45415" lon="6.59507">
        <ele>342</ele>
        <time>2019-01-24T14:34:12Z</time>
      </trkpt>
      <trkpt lat="43.45418" lon="6.59516">
        <ele>339</ele>
        <time>2019-01-24T14:34:26Z</time>
      </trkpt>
      <trkpt lat="43.45415" lon="6.5952">
        <ele>336.60000610352</ele>
        <time>2019-01-24T14:34:40Z</time>
      </trkpt>
      <trkpt lat="43.45416" lon="6.59529">
        <ele>335</ele>
        <time>2019-01-24T14:35:13Z</time>
      </trkpt>
      <trkpt lat="43.4542" lon="6.59537">
        <ele>333.39999389648</ele>
        <time>2019-01-24T14:35:31Z</time>
      </trkpt>
      <trkpt lat="43.4542" lon="6.59545">
        <ele>330.79998779297</ele>
        <time>2019-01-24T14:35:47Z</time>
      </trkpt>
      <trkpt lat="43.45416" lon="6.5955">
        <ele>329</ele>
        <time>2019-01-24T14:36:11Z</time>
      </trkpt>
      <trkpt lat="43.45417" lon="6.59555">
        <ele>327.60000610352</ele>
        <time>2019-01-24T14:36:29Z</time>
      </trkpt>
      <trkpt lat="43.45415" lon="6.59553">
        <ele>327.39999389648</ele>
        <time>2019-01-24T14:36:56Z</time>
      </trkpt>
      <trkpt lat="43.45416" lon="6.59561">
        <ele>326.39999389648</ele>
        <time>2019-01-24T14:37:26Z</time>
      </trkpt>
      <trkpt lat="43.45413" lon="6.59571">
        <ele>324.39999389648</ele>
        <time>2019-01-24T14:37:59Z</time>
      </trkpt>
      <trkpt lat="43.45419" lon="6.59578">
        <ele>322</ele>
        <time>2019-01-24T14:38:22Z</time>
      </trkpt>
      <trkpt lat="43.45428" lon="6.59579">
        <ele>320</ele>
        <time>2019-01-24T14:38:48Z</time>
      </trkpt>
      <trkpt lat="43.45435" lon="6.59582">
        <ele>318.39999389648</ele>
        <time>2019-01-24T14:39:03Z</time>
      </trkpt>
      <trkpt lat="43.4544" lon="6.59586">
        <ele>316.39999389648</ele>
        <time>2019-01-24T14:39:21Z</time>
      </trkpt>
      <trkpt lat="43.45443" lon="6.59594">
        <ele>314.39999389648</ele>
        <time>2019-01-24T14:39:41Z</time>
      </trkpt>
      <trkpt lat="43.45441" lon="6.59607">
        <ele>311.79998779297</ele>
        <time>2019-01-24T14:40:04Z</time>
      </trkpt>
      <trkpt lat="43.45443" lon="6.59623">
        <ele>309.39999389648</ele>
        <time>2019-01-24T14:40:29Z</time>
      </trkpt>
      <trkpt lat="43.45448" lon="6.59632">
        <ele>306.79998779297</ele>
        <time>2019-01-24T14:40:51Z</time>
      </trkpt>
      <trkpt lat="43.45449" lon="6.59645">
        <ele>305.60000610352</ele>
        <time>2019-01-24T14:41:13Z</time>
      </trkpt>
      <trkpt lat="43.45452" lon="6.59649">
        <ele>304.39999389648</ele>
        <time>2019-01-24T14:41:32Z</time>
      </trkpt>
      <trkpt lat="43.45456" lon="6.59654">
        <ele>303.79998779297</ele>
        <time>2019-01-24T14:41:56Z</time>
      </trkpt>
      <trkpt lat="43.45462" lon="6.59659">
        <ele>301.20001220703</ele>
        <time>2019-01-24T14:42:17Z</time>
      </trkpt>
      <trkpt lat="43.4547" lon="6.59665">
        <ele>299</ele>
        <time>2019-01-24T14:42:37Z</time>
      </trkpt>
      <trkpt lat="43.45472" lon="6.59668">
        <ele>296</ele>
        <time>2019-01-24T14:42:55Z</time>
      </trkpt>
      <trkpt lat="43.45471" lon="6.59672">
        <ele>294.79998779297</ele>
        <time>2019-01-24T14:43:21Z</time>
      </trkpt>
      <trkpt lat="43.45474" lon="6.59679">
        <ele>293</ele>
        <time>2019-01-24T14:43:57Z</time>
      </trkpt>
      <trkpt lat="43.45479" lon="6.59687">
        <ele>290</ele>
        <time>2019-01-24T14:44:20Z</time>
      </trkpt>
      <trkpt lat="43.45486" lon="6.59696">
        <ele>287.79998779297</ele>
        <time>2019-01-24T14:44:44Z</time>
      </trkpt>
      <trkpt lat="43.45493" lon="6.59711">
        <ele>284.79998779297</ele>
        <time>2019-01-24T14:45:12Z</time>
      </trkpt>
      <trkpt lat="43.45499" lon="6.59717">
        <ele>281.79998779297</ele>
        <time>2019-01-24T14:45:37Z</time>
      </trkpt>
      <trkpt lat="43.45506" lon="6.59723">
        <ele>278.79998779297</ele>
        <time>2019-01-24T14:46:01Z</time>
      </trkpt>
      <trkpt lat="43.4551" lon="6.59738">
        <ele>276.20001220703</ele>
        <time>2019-01-24T14:46:27Z</time>
      </trkpt>
      <trkpt lat="43.45514" lon="6.59745">
        <ele>273</ele>
        <time>2019-01-24T14:46:52Z</time>
      </trkpt>
      <trkpt lat="43.45519" lon="6.59752">
        <ele>270.39999389648</ele>
        <time>2019-01-24T14:47:17Z</time>
      </trkpt>
      <trkpt lat="43.45526" lon="6.59754">
        <ele>267.39999389648</ele>
        <time>2019-01-24T14:47:46Z</time>
      </trkpt>
      <trkpt lat="43.45527" lon="6.5976">
        <ele>265</ele>
        <time>2019-01-24T14:48:06Z</time>
      </trkpt>
      <trkpt lat="43.45533" lon="6.59765">
        <ele>262.20001220703</ele>
        <time>2019-01-24T14:48:30Z</time>
      </trkpt>
      <trkpt lat="43.45537" lon="6.59772">
        <ele>259.60000610352</ele>
        <time>2019-01-24T14:48:53Z</time>
      </trkpt>
      <trkpt lat="43.45543" lon="6.59773">
        <ele>257.79998779297</ele>
        <time>2019-01-24T14:49:12Z</time>
      </trkpt>
      <trkpt lat="43.45547" lon="6.59771">
        <ele>256.39999389648</ele>
        <time>2019-01-24T14:49:34Z</time>
      </trkpt>
      <trkpt lat="43.45552" lon="6.59768">
        <ele>254.39999389648</ele>
        <time>2019-01-24T14:49:53Z</time>
      </trkpt>
      <trkpt lat="43.45555" lon="6.59773">
        <ele>252.19999694824</ele>
        <time>2019-01-24T14:50:17Z</time>
      </trkpt>
      <trkpt lat="43.45559" lon="6.59778">
        <ele>250.39999389648</ele>
        <time>2019-01-24T14:50:36Z</time>
      </trkpt>
      <trkpt lat="43.4556" lon="6.59784">
        <ele>249</ele>
        <time>2019-01-24T14:50:57Z</time>
      </trkpt>
      <trkpt lat="43.45564" lon="6.59789">
        <ele>247.60000610352</ele>
        <time>2019-01-24T14:51:15Z</time>
      </trkpt>
      <trkpt lat="43.4557" lon="6.59788">
        <ele>245</ele>
        <time>2019-01-24T14:51:35Z</time>
      </trkpt>
      <trkpt lat="43.45576" lon="6.59791">
        <ele>242.80000305176</ele>
        <time>2019-01-24T14:51:56Z</time>
      </trkpt>
      <trkpt lat="43.45583" lon="6.59796">
        <ele>240.19999694824</ele>
        <time>2019-01-24T14:52:13Z</time>
      </trkpt>
      <trkpt lat="43.4559" lon="6.598">
        <ele>238.19999694824</ele>
        <time>2019-01-24T14:52:32Z</time>
      </trkpt>
      <trkpt lat="43.456" lon="6.59797">
        <ele>236.19999694824</ele>
        <time>2019-01-24T14:52:50Z</time>
      </trkpt>
      <trkpt lat="43.45601" lon="6.5979">
        <ele>235.80000305176</ele>
        <time>2019-01-24T14:53:20Z</time>
      </trkpt>
      <trkpt lat="43.45612" lon="6.59777">
        <ele>236.19999694824</ele>
        <time>2019-01-24T14:53:41Z</time>
      </trkpt>
      <trkpt lat="43.45625" lon="6.59783">
        <ele>234.60000610352</ele>
        <time>2019-01-24T14:54:00Z</time>
      </trkpt>
      <trkpt lat="43.45636" lon="6.59787">
        <ele>232.19999694824</ele>
        <time>2019-01-24T14:54:18Z</time>
      </trkpt>
      <trkpt lat="43.45639" lon="6.59779">
        <ele>231</ele>
        <time>2019-01-24T14:54:34Z</time>
      </trkpt>
      <trkpt lat="43.45639" lon="6.5978">
        <ele>231.60000610352</ele>
        <time>2019-01-24T14:55:13Z</time>
      </trkpt>
      <trkpt lat="43.45641" lon="6.59786">
        <ele>231.39999389648</ele>
        <time>2019-01-24T14:55:35Z</time>
      </trkpt>
      <trkpt lat="43.45652" lon="6.59788">
        <ele>230</ele>
        <time>2019-01-24T14:55:51Z</time>
      </trkpt>
      <trkpt lat="43.45662" lon="6.59792">
        <ele>227.60000610352</ele>
        <time>2019-01-24T14:56:08Z</time>
      </trkpt>
      <trkpt lat="43.45672" lon="6.59795">
        <ele>226</ele>
        <time>2019-01-24T14:56:24Z</time>
      </trkpt>
      <trkpt lat="43.45683" lon="6.59798">
        <ele>223.39999389648</ele>
        <time>2019-01-24T14:56:40Z</time>
      </trkpt>
      <trkpt lat="43.45687" lon="6.59798">
        <ele>223</ele>
        <time>2019-01-24T14:56:44Z</time>
      </trkpt>
      <trkpt lat="43.457" lon="6.59794">
        <ele>220</ele>
        <time>2019-01-24T14:57:02Z</time>
      </trkpt>
      <trkpt lat="43.45707" lon="6.59793">
        <ele>217.60000610352</ele>
        <time>2019-01-24T14:57:20Z</time>
      </trkpt>
      <trkpt lat="43.45713" lon="6.59793">
        <ele>216.39999389648</ele>
        <time>2019-01-24T14:57:30Z</time>
      </trkpt>
      <trkpt lat="43.45724" lon="6.59791">
        <ele>214</ele>
        <time>2019-01-24T14:57:48Z</time>
      </trkpt>
      <trkpt lat="43.45736" lon="6.59784">
        <ele>212.19999694824</ele>
        <time>2019-01-24T14:58:06Z</time>
      </trkpt>
      <trkpt lat="43.45739" lon="6.59788">
        <ele>210.39999389648</ele>
        <time>2019-01-24T14:58:21Z</time>
      </trkpt>
      <trkpt lat="43.45744" lon="6.59796">
        <ele>207.19999694824</ele>
        <time>2019-01-24T14:58:39Z</time>
      </trkpt>
      <trkpt lat="43.45751" lon="6.59795">
        <ele>205.60000610352</ele>
        <time>2019-01-24T14:58:54Z</time>
      </trkpt>
      <trkpt lat="43.45753" lon="6.59794">
        <ele>203.60000610352</ele>
        <time>2019-01-24T14:59:22Z</time>
      </trkpt>
      <trkpt lat="43.45761" lon="6.5979">
        <ele>203</ele>
        <time>2019-01-24T14:59:38Z</time>
      </trkpt>
      <trkpt lat="43.4577" lon="6.59787">
        <ele>200</ele>
        <time>2019-01-24T15:00:01Z</time>
      </trkpt>
      <trkpt lat="43.4578" lon="6.59788">
        <ele>199</ele>
        <time>2019-01-24T15:00:19Z</time>
      </trkpt>
      <trkpt lat="43.45784" lon="6.59796">
        <ele>195.80000305176</ele>
        <time>2019-01-24T15:00:38Z</time>
      </trkpt>
      <trkpt lat="43.45791" lon="6.59794">
        <ele>193.19999694824</ele>
        <time>2019-01-24T15:00:53Z</time>
      </trkpt>
      <trkpt lat="43.45793" lon="6.59794">
        <ele>192.80000305176</ele>
        <time>2019-01-24T15:01:02Z</time>
      </trkpt>
      <trkpt lat="43.45804" lon="6.59791">
        <ele>191.39999389648</ele>
        <time>2019-01-24T15:01:19Z</time>
      </trkpt>
      <trkpt lat="43.45807" lon="6.59792">
        <ele>190.60000610352</ele>
        <time>2019-01-24T15:01:24Z</time>
      </trkpt>
      <trkpt lat="43.45818" lon="6.59793">
        <ele>188.60000610352</ele>
        <time>2019-01-24T15:01:39Z</time>
      </trkpt>
      <trkpt lat="43.45828" lon="6.59791">
        <ele>186.80000305176</ele>
        <time>2019-01-24T15:01:55Z</time>
      </trkpt>
      <trkpt lat="43.45832" lon="6.59786">
        <ele>186.80000305176</ele>
        <time>2019-01-24T15:02:01Z</time>
      </trkpt>
      <trkpt lat="43.45834" lon="6.59779">
        <ele>186.80000305176</ele>
        <time>2019-01-24T15:02:09Z</time>
      </trkpt>
      <trkpt lat="43.45837" lon="6.59767">
        <ele>186.39999389648</ele>
        <time>2019-01-24T15:02:24Z</time>
      </trkpt>
      <trkpt lat="43.45836" lon="6.59755">
        <ele>186</ele>
        <time>2019-01-24T15:02:39Z</time>
      </trkpt>
      <trkpt lat="43.45841" lon="6.59754">
        <ele>186</ele>
        <time>2019-01-24T15:02:54Z</time>
      </trkpt>
      <trkpt lat="43.4584" lon="6.59737">
        <ele>184.80000305176</ele>
        <time>2019-01-24T15:03:11Z</time>
      </trkpt>
      <trkpt lat="43.45838" lon="6.59732">
        <ele>185.39999389648</ele>
        <time>2019-01-24T15:03:16Z</time>
      </trkpt>
      <trkpt lat="43.45836" lon="6.59716">
        <ele>186.60000610352</ele>
        <time>2019-01-24T15:03:31Z</time>
      </trkpt>
      <trkpt lat="43.45839" lon="6.59703">
        <ele>186.39999389648</ele>
        <time>2019-01-24T15:03:45Z</time>
      </trkpt>
      <trkpt lat="43.45845" lon="6.59694">
        <ele>185.39999389648</ele>
        <time>2019-01-24T15:04:02Z</time>
      </trkpt>
      <trkpt lat="43.4585" lon="6.59683">
        <ele>184.80000305176</ele>
        <time>2019-01-24T15:04:15Z</time>
      </trkpt>
      <trkpt lat="43.45859" lon="6.5967">
        <ele>183.39999389648</ele>
        <time>2019-01-24T15:04:30Z</time>
      </trkpt>
      <trkpt lat="43.45869" lon="6.59655">
        <ele>181.19999694824</ele>
        <time>2019-01-24T15:04:48Z</time>
      </trkpt>
      <trkpt lat="43.45868" lon="6.59653">
        <ele>180.60000610352</ele>
        <time>2019-01-24T15:05:11Z</time>
      </trkpt>
      <trkpt lat="43.45871" lon="6.59644">
        <ele>180.60000610352</ele>
        <time>2019-01-24T15:05:29Z</time>
      </trkpt>
      <trkpt lat="43.4588" lon="6.59629">
        <ele>179.19999694824</ele>
        <time>2019-01-24T15:05:46Z</time>
      </trkpt>
      <trkpt lat="43.45883" lon="6.59619">
        <ele>177.39999389648</ele>
        <time>2019-01-24T15:06:07Z</time>
      </trkpt>
      <trkpt lat="43.45884" lon="6.5962">
        <ele>176.60000610352</ele>
        <time>2019-01-24T15:06:58Z</time>
      </trkpt>
      <trkpt lat="43.45889" lon="6.5962">
        <ele>176</ele>
        <time>2019-01-24T15:07:17Z</time>
      </trkpt>
      <trkpt lat="43.45895" lon="6.59624">
        <ele>173.80000305176</ele>
        <time>2019-01-24T15:07:34Z</time>
      </trkpt>
      <trkpt lat="43.45901" lon="6.59615">
        <ele>172.19999694824</ele>
        <time>2019-01-24T15:07:49Z</time>
      </trkpt>
      <trkpt lat="43.45904" lon="6.59617">
        <ele>170.19999694824</ele>
        <time>2019-01-24T15:08:05Z</time>
      </trkpt>
      <trkpt lat="43.45912" lon="6.59614">
        <ele>168.19999694824</ele>
        <time>2019-01-24T15:08:20Z</time>
      </trkpt>
      <trkpt lat="43.45921" lon="6.59616">
        <ele>165.19999694824</ele>
        <time>2019-01-24T15:08:36Z</time>
      </trkpt>
      <trkpt lat="43.45924" lon="6.59605">
        <ele>163.80000305176</ele>
        <time>2019-01-24T15:08:51Z</time>
      </trkpt>
      <trkpt lat="43.45932" lon="6.59613">
        <ele>161.60000610352</ele>
        <time>2019-01-24T15:09:07Z</time>
      </trkpt>
      <trkpt lat="43.45934" lon="6.59616">
        <ele>161.60000610352</ele>
        <time>2019-01-24T15:09:12Z</time>
      </trkpt>
      <trkpt lat="43.45938" lon="6.59636">
        <ele>160.39999389648</ele>
        <time>2019-01-24T15:09:29Z</time>
      </trkpt>
      <trkpt lat="43.45947" lon="6.59641">
        <ele>158.60000610352</ele>
        <time>2019-01-24T15:09:44Z</time>
      </trkpt>
      <trkpt lat="43.45952" lon="6.59634">
        <ele>155.60000610352</ele>
        <time>2019-01-24T15:10:00Z</time>
      </trkpt>
      <trkpt lat="43.4596" lon="6.59634">
        <ele>153.19999694824</ele>
        <time>2019-01-24T15:10:17Z</time>
      </trkpt>
      <trkpt lat="43.45968" lon="6.59639">
        <ele>151</ele>
        <time>2019-01-24T15:10:36Z</time>
      </trkpt>
      <trkpt lat="43.45972" lon="6.59641">
        <ele>149.80000305176</ele>
        <time>2019-01-24T15:10:57Z</time>
      </trkpt>
      <trkpt lat="43.45975" lon="6.59649">
        <ele>149.80000305176</ele>
        <time>2019-01-24T15:11:10Z</time>
      </trkpt>
      <trkpt lat="43.45967" lon="6.59679">
        <ele>151</ele>
        <time>2019-01-24T15:11:29Z</time>
      </trkpt>
      <trkpt lat="43.45958" lon="6.59713">
        <ele>151.19999694824</ele>
        <time>2019-01-24T15:11:50Z</time>
      </trkpt>
      <trkpt lat="43.45951" lon="6.59745">
        <ele>151.60000610352</ele>
        <time>2019-01-24T15:12:10Z</time>
      </trkpt>
      <trkpt lat="43.45944" lon="6.59776">
        <ele>153</ele>
        <time>2019-01-24T15:12:28Z</time>
      </trkpt>
      <trkpt lat="43.45937" lon="6.59807">
        <ele>154</ele>
        <time>2019-01-24T15:12:46Z</time>
      </trkpt>
      <trkpt lat="43.45937" lon="6.59808">
        <ele>154.19999694824</ele>
        <time>2019-01-24T15:12:47Z</time>
      </trkpt>
      <trkpt lat="43.45934" lon="6.59815">
        <ele>154.19999694824</ele>
        <time>2019-01-24T15:12:51Z</time>
      </trkpt>
      <trkpt lat="43.45926" lon="6.59853">
        <ele>155.19999694824</ele>
        <time>2019-01-24T15:13:14Z</time>
      </trkpt>
      <trkpt lat="43.45915" lon="6.59894">
        <ele>154.80000305176</ele>
        <time>2019-01-24T15:13:40Z</time>
      </trkpt>
      <trkpt lat="43.45908" lon="6.59931">
        <ele>153.60000610352</ele>
        <time>2019-01-24T15:14:03Z</time>
      </trkpt>
      <trkpt lat="43.45903" lon="6.59959">
        <ele>152.19999694824</ele>
        <time>2019-01-24T15:14:21Z</time>
      </trkpt>
      <trkpt lat="43.45899" lon="6.59981">
        <ele>150.60000610352</ele>
        <time>2019-01-24T15:14:37Z</time>
      </trkpt>
      <trkpt lat="43.45892" lon="6.60008">
        <ele>150</ele>
        <time>2019-01-24T15:14:55Z</time>
      </trkpt>
      <trkpt lat="43.45887" lon="6.60036">
        <ele>149.80000305176</ele>
        <time>2019-01-24T15:15:13Z</time>
      </trkpt>
      <trkpt lat="43.45885" lon="6.60045">
        <ele>149.80000305176</ele>
        <time>2019-01-24T15:15:18Z</time>
      </trkpt>
      <trkpt lat="43.45879" lon="6.60077">
        <ele>149.60000610352</ele>
        <time>2019-01-24T15:15:37Z</time>
      </trkpt>
      <trkpt lat="43.45874" lon="6.60114">
        <ele>150</ele>
        <time>2019-01-24T15:16:00Z</time>
      </trkpt>
      <trkpt lat="43.45871" lon="6.60146">
        <ele>150.60000610352</ele>
        <time>2019-01-24T15:16:20Z</time>
      </trkpt>
      <trkpt lat="43.45869" lon="6.60167">
        <ele>151.39999389648</ele>
        <time>2019-01-24T15:16:32Z</time>
      </trkpt>
      <trkpt lat="43.45868" lon="6.60171">
        <ele>151.39999389648</ele>
        <time>2019-01-24T15:16:34Z</time>
      </trkpt>
      <trkpt lat="43.45868" lon="6.60176">
        <ele>151.60000610352</ele>
        <time>2019-01-24T15:16:38Z</time>
      </trkpt>
      <trkpt lat="43.45867" lon="6.60206">
        <ele>152.39999389648</ele>
        <time>2019-01-24T15:16:56Z</time>
      </trkpt>
      <trkpt lat="43.4586" lon="6.6024">
        <ele>153.39999389648</ele>
        <time>2019-01-24T15:17:16Z</time>
      </trkpt>
      <trkpt lat="43.45858" lon="6.60268">
        <ele>154</ele>
        <time>2019-01-24T15:17:33Z</time>
      </trkpt>
      <trkpt lat="43.45856" lon="6.60297">
        <ele>155</ele>
        <time>2019-01-24T15:17:51Z</time>
      </trkpt>
      <trkpt lat="43.45855" lon="6.60298">
        <ele>155</ele>
        <time>2019-01-24T15:17:52Z</time>
      </trkpt>
      <trkpt lat="43.45848" lon="6.60301">
        <ele>155</ele>
        <time>2019-01-24T15:17:59Z</time>
      </trkpt>
      <trkpt lat="43.45842" lon="6.60304">
        <ele>155.19999694824</ele>
        <time>2019-01-24T15:18:16Z</time>
      </trkpt>
      <trkpt lat="43.4584" lon="6.60303">
        <ele>155.39999389648</ele>
        <time>2019-01-24T15:18:49Z</time>
      </trkpt>
      <trkpt lat="43.45841" lon="6.60303">
        <ele>155.39999389648</ele>
        <time>2019-01-24T15:19:05Z</time>
      </trkpt>
      <trkpt lat="43.45842" lon="6.60302">
        <ele>155.60000610352</ele>
        <time>2019-01-24T15:19:48Z</time>
      </trkpt>
      <trkpt lat="43.4584" lon="6.60302">
        <ele>155.60000610352</ele>
        <time>2019-01-24T15:20:18Z</time>
      </trkpt>
      <trkpt lat="43.45841" lon="6.60301">
        <ele>155.80000305176</ele>
        <time>2019-01-24T15:20:45Z</time>
      </trkpt>
      <trkpt lat="43.45842" lon="6.60302">
        <ele>155.39999389648</ele>
        <time>2019-01-24T15:21:10Z</time>
      </trkpt>
      <trkpt lat="43.45842" lon="6.60304">
        <ele>155.19999694824</ele>
        <time>2019-01-24T15:21:31Z</time>
      </trkpt>
      <trkpt lat="43.45842" lon="6.60303">
        <ele>156</ele>
        <time>2019-01-24T15:22:25Z</time>
      </trkpt>
      <trkpt lat="43.45842" lon="6.60302">
        <ele>156</ele>
        <time>2019-01-24T15:22:30Z</time>
      </trkpt>
      <trkpt lat="43.45842" lon="6.60302">
        <ele>20.799999237061</ele>
        <time>2019-01-24T15:22:32Z</time>
      </trkpt>
      <trkpt lat="43.45842" lon="6.60302">
        <ele>21</ele>
        <time>2019-01-24T15:22:33Z</time>
      </trkpt>
      <trkpt lat="43.45845" lon="6.60304">
        <ele>21</ele>
        <time>2019-01-24T15:22:55Z</time>
      </trkpt>
      <trkpt lat="43.45845" lon="6.60308">
        <ele>21</ele>
        <time>2019-01-24T15:22:58Z</time>
      </trkpt>
      <trkpt lat="43.45855" lon="6.60344">
        <ele>20.799999237061</ele>
        <time>2019-01-24T15:23:20Z</time>
      </trkpt>
      <trkpt lat="43.45856" lon="6.60377">
        <ele>20.39999961853</ele>
        <time>2019-01-24T15:23:38Z</time>
      </trkpt>
      <trkpt lat="43.45856" lon="6.60409">
        <ele>19.799999237061</ele>
        <time>2019-01-24T15:23:56Z</time>
      </trkpt>
      <trkpt lat="43.45857" lon="6.6044">
        <ele>18.799999237061</ele>
        <time>2019-01-24T15:24:13Z</time>
      </trkpt>
      <trkpt lat="43.45859" lon="6.60471">
        <ele>17.60000038147</ele>
        <time>2019-01-24T15:24:30Z</time>
      </trkpt>
      <trkpt lat="43.4586" lon="6.60503">
        <ele>16.39999961853</ele>
        <time>2019-01-24T15:24:47Z</time>
      </trkpt>
      <trkpt lat="43.45863" lon="6.60536">
        <ele>16</ele>
        <time>2019-01-24T15:25:05Z</time>
      </trkpt>
      <trkpt lat="43.45864" lon="6.60569">
        <ele>16</ele>
        <time>2019-01-24T15:25:23Z</time>
      </trkpt>
      <trkpt lat="43.45867" lon="6.60594">
        <ele>16.39999961853</ele>
        <time>2019-01-24T15:25:38Z</time>
      </trkpt>
      <trkpt lat="43.45867" lon="6.60596">
        <ele>16.60000038147</ele>
        <time>2019-01-24T15:25:39Z</time>
      </trkpt>
      <trkpt lat="43.45868" lon="6.60604">
        <ele>16.60000038147</ele>
        <time>2019-01-24T15:25:44Z</time>
      </trkpt>
      <trkpt lat="43.45874" lon="6.60634">
        <ele>17</ele>
        <time>2019-01-24T15:26:02Z</time>
      </trkpt>
      <trkpt lat="43.4588" lon="6.60668">
        <ele>18.200000762939</ele>
        <time>2019-01-24T15:26:23Z</time>
      </trkpt>
      <trkpt lat="43.45885" lon="6.60691">
        <ele>18</ele>
        <time>2019-01-24T15:26:35Z</time>
      </trkpt>
      <trkpt lat="43.45889" lon="6.60717">
        <ele>17.60000038147</ele>
        <time>2019-01-24T15:26:50Z</time>
      </trkpt>
      <trkpt lat="43.45897" lon="6.60745">
        <ele>17.200000762939</ele>
        <time>2019-01-24T15:27:06Z</time>
      </trkpt>
      <trkpt lat="43.45904" lon="6.60772">
        <ele>16.60000038147</ele>
        <time>2019-01-24T15:27:21Z</time>
      </trkpt>
      <trkpt lat="43.45913" lon="6.60809">
        <ele>16</ele>
        <time>2019-01-24T15:27:43Z</time>
      </trkpt>
      <trkpt lat="43.4592" lon="6.60833">
        <ele>16</ele>
        <time>2019-01-24T15:27:57Z</time>
      </trkpt>
      <trkpt lat="43.45921" lon="6.60839">
        <ele>16</ele>
        <time>2019-01-24T15:28:00Z</time>
      </trkpt>
      <trkpt lat="43.45927" lon="6.60864">
        <ele>16.39999961853</ele>
        <time>2019-01-24T15:28:16Z</time>
      </trkpt>
      <trkpt lat="43.45936" lon="6.60907">
        <ele>17.39999961853</ele>
        <time>2019-01-24T15:28:42Z</time>
      </trkpt>
      <trkpt lat="43.45944" lon="6.60941">
        <ele>19</ele>
        <time>2019-01-24T15:29:02Z</time>
      </trkpt>
      <trkpt lat="43.45946" lon="6.60953">
        <ele>19.39999961853</ele>
        <time>2019-01-24T15:29:10Z</time>
      </trkpt>
      <trkpt lat="43.45948" lon="6.60968">
        <ele>20</ele>
        <time>2019-01-24T15:29:20Z</time>
      </trkpt>
      <trkpt lat="43.45924" lon="6.60984">
        <ele>20</ele>
        <time>2019-01-24T15:29:42Z</time>
      </trkpt>
      <trkpt lat="43.45906" lon="6.60995">
        <ele>18.39999961853</ele>
        <time>2019-01-24T15:30:00Z</time>
      </trkpt>
      <trkpt lat="43.45883" lon="6.61008">
        <ele>16.60000038147</ele>
        <time>2019-01-24T15:30:20Z</time>
      </trkpt>
      <trkpt lat="43.45862" lon="6.61016">
        <ele>15.39999961853</ele>
        <time>2019-01-24T15:30:37Z</time>
      </trkpt>
      <trkpt lat="43.45852" lon="6.61015">
        <ele>14.60000038147</ele>
        <time>2019-01-24T15:30:46Z</time>
      </trkpt>
      <trkpt lat="43.4583" lon="6.61004">
        <ele>12.800000190735</ele>
        <time>2019-01-24T15:31:06Z</time>
      </trkpt>
      <trkpt lat="43.45806" lon="6.61001">
        <ele>11.199999809265</ele>
        <time>2019-01-24T15:31:25Z</time>
      </trkpt>
      <trkpt lat="43.45797" lon="6.61001">
        <ele>10.800000190735</ele>
        <time>2019-01-24T15:31:32Z</time>
      </trkpt>
      <trkpt lat="43.45782" lon="6.61014">
        <ele>10.800000190735</ele>
        <time>2019-01-24T15:31:48Z</time>
      </trkpt>
      <trkpt lat="43.45766" lon="6.61034">
        <ele>10.60000038147</ele>
        <time>2019-01-24T15:32:05Z</time>
      </trkpt>
      <trkpt lat="43.45751" lon="6.61051">
        <ele>10</ele>
        <time>2019-01-24T15:32:22Z</time>
      </trkpt>
      <trkpt lat="43.4573" lon="6.61065">
        <ele>9.6000003814697</ele>
        <time>2019-01-24T15:32:40Z</time>
      </trkpt>
      <trkpt lat="43.45706" lon="6.61072">
        <ele>9.1999998092651</ele>
        <time>2019-01-24T15:32:58Z</time>
      </trkpt>
      <trkpt lat="43.45686" lon="6.61073">
        <ele>8.8000001907349</ele>
        <time>2019-01-24T15:33:13Z</time>
      </trkpt>
      <trkpt lat="43.45667" lon="6.61074">
        <ele>8.3999996185303</ele>
        <time>2019-01-24T15:33:31Z</time>
      </trkpt>
      <trkpt lat="43.4565" lon="6.61079">
        <ele>8.1999998092651</ele>
        <time>2019-01-24T15:33:45Z</time>
      </trkpt>
      <trkpt lat="43.45648" lon="6.6108">
        <ele>8.1999998092651</ele>
        <time>2019-01-24T15:33:47Z</time>
      </trkpt>
      <trkpt lat="43.45632" lon="6.61094">
        <ele>8</ele>
        <time>2019-01-24T15:34:02Z</time>
      </trkpt>
      <trkpt lat="43.45614" lon="6.61121">
        <ele>7.8000001907349</ele>
        <time>2019-01-24T15:34:24Z</time>
      </trkpt>
      <trkpt lat="43.45598" lon="6.61154">
        <ele>7.8000001907349</ele>
        <time>2019-01-24T15:34:47Z</time>
      </trkpt>
      <trkpt lat="43.45589" lon="6.61172">
        <ele>8</ele>
        <time>2019-01-24T15:34:57Z</time>
      </trkpt>
      <trkpt lat="43.45577" lon="6.61183">
        <ele>7.5999999046326</ele>
        <time>2019-01-24T15:35:10Z</time>
      </trkpt>
      <trkpt lat="43.45569" lon="6.61189">
        <ele>7.1999998092651</ele>
        <time>2019-01-24T15:35:16Z</time>
      </trkpt>
      <trkpt lat="43.45558" lon="6.61191">
        <ele>6.8000001907349</ele>
        <time>2019-01-24T15:35:23Z</time>
      </trkpt>
      <trkpt lat="43.45549" lon="6.61192">
        <ele>6.8000001907349</ele>
        <time>2019-01-24T15:35:30Z</time>
      </trkpt>
      <trkpt lat="43.45531" lon="6.61193">
        <ele>6.5999999046326</ele>
        <time>2019-01-24T15:35:45Z</time>
      </trkpt>
      <trkpt lat="43.45529" lon="6.61194">
        <ele>6.5999999046326</ele>
        <time>2019-01-24T15:35:47Z</time>
      </trkpt>
      <trkpt lat="43.45515" lon="6.61201">
        <ele>6.4000000953674</ele>
        <time>2019-01-24T15:36:04Z</time>
      </trkpt>
      <trkpt lat="43.45512" lon="6.61202">
        <ele>6.4000000953674</ele>
        <time>2019-01-24T15:36:07Z</time>
      </trkpt>
      <trkpt lat="43.45499" lon="6.61205">
        <ele>6.5999999046326</ele>
        <time>2019-01-24T15:36:18Z</time>
      </trkpt>
      <trkpt lat="43.45489" lon="6.61207">
        <ele>6.5999999046326</ele>
        <time>2019-01-24T15:36:25Z</time>
      </trkpt>
      <trkpt lat="43.45469" lon="6.61205">
        <ele>6.4000000953674</ele>
        <time>2019-01-24T15:36:41Z</time>
      </trkpt>
      <trkpt lat="43.45448" lon="6.61193">
        <ele>6.5999999046326</ele>
        <time>2019-01-24T15:36:58Z</time>
      </trkpt>
      <trkpt lat="43.45431" lon="6.61184">
        <ele>6.8000001907349</ele>
        <time>2019-01-24T15:37:11Z</time>
      </trkpt>
      <trkpt lat="43.45415" lon="6.61183">
        <ele>6.5999999046326</ele>
        <time>2019-01-24T15:37:24Z</time>
      </trkpt>
      <trkpt lat="43.45403" lon="6.61201">
        <ele>6.4000000953674</ele>
        <time>2019-01-24T15:37:38Z</time>
      </trkpt>
      <trkpt lat="43.45401" lon="6.61232">
        <ele>6.4000000953674</ele>
        <time>2019-01-24T15:37:56Z</time>
      </trkpt>
      <trkpt lat="43.45402" lon="6.61262">
        <ele>6.4000000953674</ele>
        <time>2019-01-24T15:38:14Z</time>
      </trkpt>
      <trkpt lat="43.45395" lon="6.61286">
        <ele>6.4000000953674</ele>
        <time>2019-01-24T15:38:29Z</time>
      </trkpt>
      <trkpt lat="43.45387" lon="6.6129">
        <ele>6.5999999046326</ele>
        <time>2019-01-24T15:39:20Z</time>
      </trkpt>
      <trkpt lat="43.45385" lon="6.61293">
        <ele>6.5999999046326</ele>
        <time>2019-01-24T15:39:24Z</time>
      </trkpt>
      <trkpt lat="43.45371" lon="6.61295">
        <ele>6.5999999046326</ele>
        <time>2019-01-24T15:39:39Z</time>
      </trkpt>
      <trkpt lat="43.45368" lon="6.61294">
        <ele>6.5999999046326</ele>
        <time>2019-01-24T15:39:42Z</time>
      </trkpt>
      <trkpt lat="43.45346" lon="6.61289">
        <ele>6.4000000953674</ele>
        <time>2019-01-24T15:40:00Z</time>
      </trkpt>
      <trkpt lat="43.45327" lon="6.61288">
        <ele>6.8000001907349</ele>
        <time>2019-01-24T15:40:16Z</time>
      </trkpt>
      <trkpt lat="43.45306" lon="6.61309">
        <ele>6.8000001907349</ele>
        <time>2019-01-24T15:40:37Z</time>
      </trkpt>
      <trkpt lat="43.453" lon="6.6132">
        <ele>7</ele>
        <time>2019-01-24T15:40:46Z</time>
      </trkpt>
      <trkpt lat="43.45298" lon="6.61325">
        <ele>7.1999998092651</ele>
        <time>2019-01-24T15:40:50Z</time>
      </trkpt>
      <trkpt lat="43.45287" lon="6.61349">
        <ele>7.8000001907349</ele>
        <time>2019-01-24T15:41:07Z</time>
      </trkpt>
      <trkpt lat="43.45279" lon="6.61369">
        <ele>7.8000001907349</ele>
        <time>2019-01-24T15:41:21Z</time>
      </trkpt>
      <trkpt lat="43.45262" lon="6.61378">
        <ele>7.8000001907349</ele>
        <time>2019-01-24T15:41:36Z</time>
      </trkpt>
      <trkpt lat="43.45249" lon="6.61387">
        <ele>8</ele>
        <time>2019-01-24T15:41:49Z</time>
      </trkpt>
      <trkpt lat="43.45246" lon="6.61395">
        <ele>8</ele>
        <time>2019-01-24T15:41:58Z</time>
      </trkpt>
      <trkpt lat="43.45244" lon="6.61408">
        <ele>8</ele>
        <time>2019-01-24T15:42:05Z</time>
      </trkpt>
      <trkpt lat="43.4524" lon="6.61441">
        <ele>7.1999998092651</ele>
        <time>2019-01-24T15:42:25Z</time>
      </trkpt>
      <trkpt lat="43.45225" lon="6.61466">
        <ele>7</ele>
        <time>2019-01-24T15:42:43Z</time>
      </trkpt>
      <trkpt lat="43.45214" lon="6.61474">
        <ele>6.8000001907349</ele>
        <time>2019-01-24T15:42:52Z</time>
      </trkpt>
      <trkpt lat="43.45202" lon="6.61485">
        <ele>6.5999999046326</ele>
        <time>2019-01-24T15:43:03Z</time>
      </trkpt>
      <trkpt lat="43.45185" lon="6.61497">
        <ele>6.5999999046326</ele>
        <time>2019-01-24T15:43:19Z</time>
      </trkpt>
      <trkpt lat="43.4517" lon="6.61501">
        <ele>6.5999999046326</ele>
        <time>2019-01-24T15:43:31Z</time>
      </trkpt>
      <trkpt lat="43.45156" lon="6.61504">
        <ele>6.5999999046326</ele>
        <time>2019-01-24T15:43:43Z</time>
      </trkpt>
      <trkpt lat="43.45135" lon="6.61511">
        <ele>7</ele>
        <time>2019-01-24T15:44:01Z</time>
      </trkpt>
      <trkpt lat="43.45119" lon="6.6152">
        <ele>7.1999998092651</ele>
        <time>2019-01-24T15:44:17Z</time>
      </trkpt>
      <trkpt lat="43.4511" lon="6.61528">
        <ele>7.5999999046326</ele>
        <time>2019-01-24T15:44:27Z</time>
      </trkpt>
      <trkpt lat="43.45103" lon="6.61529">
        <ele>7.5999999046326</ele>
        <time>2019-01-24T15:44:32Z</time>
      </trkpt>
      <trkpt lat="43.45081" lon="6.61523">
        <ele>7.1999998092651</ele>
        <time>2019-01-24T15:44:47Z</time>
      </trkpt>
      <trkpt lat="43.45065" lon="6.61522">
        <ele>6.1999998092651</ele>
        <time>2019-01-24T15:45:01Z</time>
      </trkpt>
      <trkpt lat="43.45053" lon="6.61531">
        <ele>5.8000001907349</ele>
        <time>2019-01-24T15:45:15Z</time>
      </trkpt>
      <trkpt lat="43.4505" lon="6.61566">
        <ele>6.1999998092651</ele>
        <time>2019-01-24T15:45:35Z</time>
      </trkpt>
      <trkpt lat="43.45044" lon="6.61594">
        <ele>6.5999999046326</ele>
        <time>2019-01-24T15:45:53Z</time>
      </trkpt>
      <trkpt lat="43.45044" lon="6.61603">
        <ele>6.5999999046326</ele>
        <time>2019-01-24T15:45:59Z</time>
      </trkpt>
      <trkpt lat="43.45062" lon="6.6162">
        <ele>6.8000001907349</ele>
        <time>2019-01-24T15:46:18Z</time>
      </trkpt>
      <trkpt lat="43.45069" lon="6.61629">
        <ele>6.8000001907349</ele>
        <time>2019-01-24T15:46:25Z</time>
      </trkpt>
      <trkpt lat="43.45071" lon="6.61632">
        <ele>7</ele>
        <time>2019-01-24T15:46:27Z</time>
      </trkpt>
      <trkpt lat="43.45081" lon="6.61657">
        <ele>7</ele>
        <time>2019-01-24T15:46:43Z</time>
      </trkpt>
      <trkpt lat="43.45071" lon="6.61681">
        <ele>7.5999999046326</ele>
        <time>2019-01-24T15:46:59Z</time>
      </trkpt>
      <trkpt lat="43.45053" lon="6.6171">
        <ele>7.5999999046326</ele>
        <time>2019-01-24T15:47:19Z</time>
      </trkpt>
      <trkpt lat="43.45039" lon="6.61744">
        <ele>6.8000001907349</ele>
        <time>2019-01-24T15:47:40Z</time>
      </trkpt>
      <trkpt lat="43.4503" lon="6.61771">
        <ele>6.4000000953674</ele>
        <time>2019-01-24T15:47:57Z</time>
      </trkpt>
      <trkpt lat="43.45021" lon="6.61791">
        <ele>6.1999998092651</ele>
        <time>2019-01-24T15:48:12Z</time>
      </trkpt>
      <trkpt lat="43.45017" lon="6.61795">
        <ele>6.1999998092651</ele>
        <time>2019-01-24T15:48:17Z</time>
      </trkpt>
      <trkpt lat="43.45013" lon="6.61798">
        <ele>6</ele>
        <time>2019-01-24T15:48:20Z</time>
      </trkpt>
      <trkpt lat="43.45009" lon="6.61801">
        <ele>6</ele>
        <time>2019-01-24T15:48:24Z</time>
      </trkpt>
      <trkpt lat="43.45" lon="6.6181">
        <ele>6</ele>
        <time>2019-01-24T15:48:34Z</time>
      </trkpt>
      <trkpt lat="43.44997" lon="6.61814">
        <ele>6</ele>
        <time>2019-01-24T15:48:37Z</time>
      </trkpt>
      <trkpt lat="43.44987" lon="6.61823">
        <ele>6</ele>
        <time>2019-01-24T15:48:47Z</time>
      </trkpt>
      <trkpt lat="43.44976" lon="6.61831">
        <ele>6</ele>
        <time>2019-01-24T15:48:57Z</time>
      </trkpt>
      <trkpt lat="43.4496" lon="6.61843">
        <ele>6.1999998092651</ele>
        <time>2019-01-24T15:49:11Z</time>
      </trkpt>
      <trkpt lat="43.44957" lon="6.61845">
        <ele>6.1999998092651</ele>
        <time>2019-01-24T15:49:14Z</time>
      </trkpt>
      <trkpt lat="43.44944" lon="6.61853">
        <ele>6.1999998092651</ele>
        <time>2019-01-24T15:49:27Z</time>
      </trkpt>
      <trkpt lat="43.44938" lon="6.61853">
        <ele>6.1999998092651</ele>
        <time>2019-01-24T15:49:31Z</time>
      </trkpt>
      <trkpt lat="43.4492" lon="6.6186">
        <ele>6</ele>
        <time>2019-01-24T15:49:46Z</time>
      </trkpt>
      <trkpt lat="43.44899" lon="6.61865">
        <ele>6</ele>
        <time>2019-01-24T15:50:03Z</time>
      </trkpt>
      <trkpt lat="43.44889" lon="6.61898">
        <ele>6</ele>
        <time>2019-01-24T15:50:24Z</time>
      </trkpt>
      <trkpt lat="43.44884" lon="6.61922">
        <ele>6</ele>
        <time>2019-01-24T15:50:39Z</time>
      </trkpt>
      <trkpt lat="43.44881" lon="6.61928">
        <ele>6.1999998092651</ele>
        <time>2019-01-24T15:50:43Z</time>
      </trkpt>
      <trkpt lat="43.4488" lon="6.6193">
        <ele>6.1999998092651</ele>
        <time>2019-01-24T15:50:45Z</time>
      </trkpt>
      <trkpt lat="43.44864" lon="6.61938">
        <ele>6.8000001907349</ele>
        <time>2019-01-24T15:51:02Z</time>
      </trkpt>
      <trkpt lat="43.44856" lon="6.6196">
        <ele>7.5999999046326</ele>
        <time>2019-01-24T15:51:19Z</time>
      </trkpt>
      <trkpt lat="43.44851" lon="6.61981">
        <ele>8</ele>
        <time>2019-01-24T15:51:33Z</time>
      </trkpt>
      <trkpt lat="43.44848" lon="6.61988">
        <ele>8</ele>
        <time>2019-01-24T15:51:39Z</time>
      </trkpt>
      <trkpt lat="43.44833" lon="6.62015">
        <ele>7.1999998092651</ele>
        <time>2019-01-24T15:51:58Z</time>
      </trkpt>
      <trkpt lat="43.44832" lon="6.62016">
        <ele>7.1999998092651</ele>
        <time>2019-01-24T15:51:59Z</time>
      </trkpt>
      <trkpt lat="43.4482" lon="6.62039">
        <ele>6.5999999046326</ele>
        <time>2019-01-24T15:52:16Z</time>
      </trkpt>
      <trkpt lat="43.44814" lon="6.62057">
        <ele>6.8000001907349</ele>
        <time>2019-01-24T15:52:26Z</time>
      </trkpt>
      <trkpt lat="43.44803" lon="6.62077">
        <ele>6.8000001907349</ele>
        <time>2019-01-24T15:52:41Z</time>
      </trkpt>
      <trkpt lat="43.44801" lon="6.62084">
        <ele>6.8000001907349</ele>
        <time>2019-01-24T15:52:47Z</time>
      </trkpt>
      <trkpt lat="43.44793" lon="6.62107">
        <ele>7</ele>
        <time>2019-01-24T15:53:02Z</time>
      </trkpt>
      <trkpt lat="43.44784" lon="6.62127">
        <ele>7</ele>
        <time>2019-01-24T15:53:18Z</time>
      </trkpt>
      <trkpt lat="43.44774" lon="6.62147">
        <ele>7.1999998092651</ele>
        <time>2019-01-24T15:53:32Z</time>
      </trkpt>
      <trkpt lat="43.44764" lon="6.62164">
        <ele>7.4000000953674</ele>
        <time>2019-01-24T15:53:49Z</time>
      </trkpt>
      <trkpt lat="43.4475" lon="6.62166">
        <ele>7.1999998092651</ele>
        <time>2019-01-24T15:54:04Z</time>
      </trkpt>
      <trkpt lat="43.44744" lon="6.62161">
        <ele>7.1999998092651</ele>
        <time>2019-01-24T15:54:10Z</time>
      </trkpt>
      <trkpt lat="43.4474" lon="6.62155">
        <ele>7.1999998092651</ele>
        <time>2019-01-24T15:54:15Z</time>
      </trkpt>
      <trkpt lat="43.44727" lon="6.62143">
        <ele>7.4000000953674</ele>
        <time>2019-01-24T15:54:28Z</time>
      </trkpt>
      <trkpt lat="43.44725" lon="6.6214">
        <ele>7.4000000953674</ele>
        <time>2019-01-24T15:54:31Z</time>
      </trkpt>
      <trkpt lat="43.44705" lon="6.62119">
        <ele>7.4000000953674</ele>
        <time>2019-01-24T15:54:51Z</time>
      </trkpt>
      <trkpt lat="43.44691" lon="6.62095">
        <ele>7.4000000953674</ele>
        <time>2019-01-24T15:55:09Z</time>
      </trkpt>
      <trkpt lat="43.44678" lon="6.62078">
        <ele>7.4000000953674</ele>
        <time>2019-01-24T15:55:25Z</time>
      </trkpt>
      <trkpt lat="43.44669" lon="6.62073">
        <ele>7.4000000953674</ele>
        <time>2019-01-24T15:55:33Z</time>
      </trkpt>
      <trkpt lat="43.44652" lon="6.62069">
        <ele>7</ele>
        <time>2019-01-24T15:55:49Z</time>
      </trkpt>
      <trkpt lat="43.44635" lon="6.62066">
        <ele>7.1999998092651</ele>
        <time>2019-01-24T15:56:03Z</time>
      </trkpt>
      <trkpt lat="43.44624" lon="6.62062">
        <ele>7</ele>
        <time>2019-01-24T15:56:17Z</time>
      </trkpt>
      <trkpt lat="43.44623" lon="6.62059">
        <ele>-125</ele>
        <time>2019-01-24T15:56:32Z</time>
      </trkpt>
    </trkseg>
  </trk>
</gpx>